<?xml version="1.0" encoding="UTF-8" standalone="no" ?>
<gpx xmlns="http://www.topografix.com/GPX/1/1" xmlns:xsi="http://www.w3.org/2001/XMLSchema-instance" xsi:schemaLocation="http://www.topografix.com/GPX/1/1 http://www.topografix.com/GPX/1/1/gpx.xsd" version="1.1" creator="VisuGPX - https://www.visugpx.com">
  <metadata>
    <name>Alpe d\'Huez : ascension en vélo</name>
    <desc><![CDATA[Montée en vélo de route de l\'Alpe d\'Huez, le 02 06 2015. Voir plus sur High-Tech Out.]]></desc>
  </metadata>
  <trk>
    <name><![CDATA[Cycling 6/2/15 12:09 pm]]></name>
    <trkseg>
      <trkpt lat="45.06485" lon="6.03995">
        <ele>729</ele>
        <time>2015-06-02T10:09:51Z</time>
      </trkpt>
      <trkpt lat="45.06495" lon="6.03999">
        <ele>729</ele>
        <time>2015-06-02T10:10:39Z</time>
      </trkpt>
      <trkpt lat="45.06503" lon="6.04007">
        <ele>730.2</ele>
        <time>2015-06-02T10:10:42Z</time>
      </trkpt>
      <trkpt lat="45.06513" lon="6.04014">
        <ele>731.2</ele>
        <time>2015-06-02T10:10:45Z</time>
      </trkpt>
      <trkpt lat="45.06523" lon="6.04016">
        <ele>732</ele>
        <time>2015-06-02T10:10:48Z</time>
      </trkpt>
      <trkpt lat="45.06534" lon="6.04015">
        <ele>732.6</ele>
        <time>2015-06-02T10:10:52Z</time>
      </trkpt>
      <trkpt lat="45.0654" lon="6.04005">
        <ele>733.5</ele>
        <time>2015-06-02T10:11:27Z</time>
      </trkpt>
      <trkpt lat="45.06549" lon="6.04002">
        <ele>734.5</ele>
        <time>2015-06-02T10:11:33Z</time>
      </trkpt>
      <trkpt lat="45.06559" lon="6.03998">
        <ele>735.4</ele>
        <time>2015-06-02T10:11:37Z</time>
      </trkpt>
      <trkpt lat="45.0657" lon="6.03994">
        <ele>736.3</ele>
        <time>2015-06-02T10:11:41Z</time>
      </trkpt>
      <trkpt lat="45.06581" lon="6.03992">
        <ele>737.2</ele>
        <time>2015-06-02T10:11:45Z</time>
      </trkpt>
      <trkpt lat="45.0659" lon="6.0399">
        <ele>737.2</ele>
        <time>2015-06-02T10:11:49Z</time>
      </trkpt>
      <trkpt lat="45.06599" lon="6.03987">
        <ele>737.2</ele>
        <time>2015-06-02T10:11:53Z</time>
      </trkpt>
      <trkpt lat="45.06608" lon="6.03984">
        <ele>736.3</ele>
        <time>2015-06-02T10:11:58Z</time>
      </trkpt>
      <trkpt lat="45.06617" lon="6.03979">
        <ele>735.4</ele>
        <time>2015-06-02T10:12:03Z</time>
      </trkpt>
      <trkpt lat="45.06626" lon="6.03975">
        <ele>734.5</ele>
        <time>2015-06-02T10:12:08Z</time>
      </trkpt>
      <trkpt lat="45.06636" lon="6.03968">
        <ele>733.5</ele>
        <time>2015-06-02T10:12:13Z</time>
      </trkpt>
      <trkpt lat="45.06646" lon="6.03962">
        <ele>732.6</ele>
        <time>2015-06-02T10:12:18Z</time>
      </trkpt>
      <trkpt lat="45.06654" lon="6.03958">
        <ele>731.7</ele>
        <time>2015-06-02T10:12:22Z</time>
      </trkpt>
      <trkpt lat="45.06664" lon="6.03955">
        <ele>732.2</ele>
        <time>2015-06-02T10:12:26Z</time>
      </trkpt>
      <trkpt lat="45.06673" lon="6.0395">
        <ele>732.6</ele>
        <time>2015-06-02T10:12:30Z</time>
      </trkpt>
      <trkpt lat="45.06684" lon="6.03946">
        <ele>733.1</ele>
        <time>2015-06-02T10:12:35Z</time>
      </trkpt>
      <trkpt lat="45.06695" lon="6.03945">
        <ele>734.5</ele>
        <time>2015-06-02T10:12:40Z</time>
      </trkpt>
      <trkpt lat="45.06706" lon="6.03944">
        <ele>735.8</ele>
        <time>2015-06-02T10:12:45Z</time>
      </trkpt>
      <trkpt lat="45.06715" lon="6.03943">
        <ele>737.2</ele>
        <time>2015-06-02T10:12:49Z</time>
      </trkpt>
      <trkpt lat="45.06724" lon="6.03942">
        <ele>738.5</ele>
        <time>2015-06-02T10:12:53Z</time>
      </trkpt>
      <trkpt lat="45.06735" lon="6.03942">
        <ele>739.9</ele>
        <time>2015-06-02T10:12:58Z</time>
      </trkpt>
      <trkpt lat="45.06746" lon="6.03943">
        <ele>741.3</ele>
        <time>2015-06-02T10:13:03Z</time>
      </trkpt>
      <trkpt lat="45.06755" lon="6.03942">
        <ele>744.1</ele>
        <time>2015-06-02T10:13:08Z</time>
      </trkpt>
      <trkpt lat="45.06765" lon="6.03941">
        <ele>746.9</ele>
        <time>2015-06-02T10:13:12Z</time>
      </trkpt>
      <trkpt lat="45.06774" lon="6.03941">
        <ele>748.4</ele>
        <time>2015-06-02T10:13:16Z</time>
      </trkpt>
      <trkpt lat="45.06783" lon="6.0394">
        <ele>749.8</ele>
        <time>2015-06-02T10:13:20Z</time>
      </trkpt>
      <trkpt lat="45.06794" lon="6.03937">
        <ele>751.3</ele>
        <time>2015-06-02T10:13:25Z</time>
      </trkpt>
      <trkpt lat="45.06804" lon="6.03932">
        <ele>752.7</ele>
        <time>2015-06-02T10:13:30Z</time>
      </trkpt>
      <trkpt lat="45.06814" lon="6.03928">
        <ele>754.2</ele>
        <time>2015-06-02T10:13:35Z</time>
      </trkpt>
      <trkpt lat="45.06823" lon="6.03925">
        <ele>755.6</ele>
        <time>2015-06-02T10:13:40Z</time>
      </trkpt>
      <trkpt lat="45.06834" lon="6.03928">
        <ele>758.9</ele>
        <time>2015-06-02T10:13:45Z</time>
      </trkpt>
      <trkpt lat="45.06845" lon="6.0393">
        <ele>762.2</ele>
        <time>2015-06-02T10:13:50Z</time>
      </trkpt>
      <trkpt lat="45.06855" lon="6.03933">
        <ele>765.5</ele>
        <time>2015-06-02T10:13:55Z</time>
      </trkpt>
      <trkpt lat="45.06865" lon="6.03938">
        <ele>767.3</ele>
        <time>2015-06-02T10:14:00Z</time>
      </trkpt>
      <trkpt lat="45.06874" lon="6.03936">
        <ele>769.1</ele>
        <time>2015-06-02T10:14:05Z</time>
      </trkpt>
      <trkpt lat="45.06885" lon="6.03933">
        <ele>770.9</ele>
        <time>2015-06-02T10:14:10Z</time>
      </trkpt>
      <trkpt lat="45.06894" lon="6.03929">
        <ele>772.7</ele>
        <time>2015-06-02T10:14:15Z</time>
      </trkpt>
      <trkpt lat="45.06904" lon="6.03927">
        <ele>774.5</ele>
        <time>2015-06-02T10:14:19Z</time>
      </trkpt>
      <trkpt lat="45.06913" lon="6.03923">
        <ele>776.4</ele>
        <time>2015-06-02T10:14:24Z</time>
      </trkpt>
      <trkpt lat="45.06923" lon="6.03919">
        <ele>780.2</ele>
        <time>2015-06-02T10:14:29Z</time>
      </trkpt>
      <trkpt lat="45.06932" lon="6.03919">
        <ele>781.1</ele>
        <time>2015-06-02T10:14:34Z</time>
      </trkpt>
      <trkpt lat="45.06941" lon="6.03916">
        <ele>780.2</ele>
        <time>2015-06-02T10:14:40Z</time>
      </trkpt>
      <trkpt lat="45.06949" lon="6.03908">
        <ele>779.3</ele>
        <time>2015-06-02T10:14:48Z</time>
      </trkpt>
      <trkpt lat="45.06957" lon="6.03901">
        <ele>778.4</ele>
        <time>2015-06-02T10:14:54Z</time>
      </trkpt>
      <trkpt lat="45.06964" lon="6.03892">
        <ele>777.5</ele>
        <time>2015-06-02T10:15:00Z</time>
      </trkpt>
      <trkpt lat="45.06972" lon="6.03886">
        <ele>776.5</ele>
        <time>2015-06-02T10:15:05Z</time>
      </trkpt>
      <trkpt lat="45.06981" lon="6.03883">
        <ele>775.6</ele>
        <time>2015-06-02T10:15:10Z</time>
      </trkpt>
      <trkpt lat="45.06991" lon="6.03881">
        <ele>774.7</ele>
        <time>2015-06-02T10:15:16Z</time>
      </trkpt>
      <trkpt lat="45.07001" lon="6.03878">
        <ele>774.9</ele>
        <time>2015-06-02T10:15:22Z</time>
      </trkpt>
      <trkpt lat="45.0701" lon="6.03872">
        <ele>775.1</ele>
        <time>2015-06-02T10:15:29Z</time>
      </trkpt>
      <trkpt lat="45.07019" lon="6.03868">
        <ele>773.3</ele>
        <time>2015-06-02T10:15:34Z</time>
      </trkpt>
      <trkpt lat="45.07029" lon="6.03866">
        <ele>774.4</ele>
        <time>2015-06-02T10:15:41Z</time>
      </trkpt>
      <trkpt lat="45.07038" lon="6.03868">
        <ele>775.5</ele>
        <time>2015-06-02T10:15:45Z</time>
      </trkpt>
      <trkpt lat="45.07048" lon="6.0387">
        <ele>776.5</ele>
        <time>2015-06-02T10:15:50Z</time>
      </trkpt>
      <trkpt lat="45.0706" lon="6.03872">
        <ele>777.6</ele>
        <time>2015-06-02T10:15:55Z</time>
      </trkpt>
      <trkpt lat="45.07071" lon="6.03874">
        <ele>778.7</ele>
        <time>2015-06-02T10:15:59Z</time>
      </trkpt>
      <trkpt lat="45.07081" lon="6.03879">
        <ele>779.8</ele>
        <time>2015-06-02T10:16:04Z</time>
      </trkpt>
      <trkpt lat="45.07091" lon="6.03883">
        <ele>785</ele>
        <time>2015-06-02T10:16:10Z</time>
      </trkpt>
      <trkpt lat="45.071" lon="6.0388">
        <ele>790.2</ele>
        <time>2015-06-02T10:16:16Z</time>
      </trkpt>
      <trkpt lat="45.07109" lon="6.03879">
        <ele>794.3</ele>
        <time>2015-06-02T10:16:24Z</time>
      </trkpt>
      <trkpt lat="45.07119" lon="6.0388">
        <ele>798.4</ele>
        <time>2015-06-02T10:16:30Z</time>
      </trkpt>
      <trkpt lat="45.07129" lon="6.03881">
        <ele>802.5</ele>
        <time>2015-06-02T10:16:36Z</time>
      </trkpt>
      <trkpt lat="45.07138" lon="6.03888">
        <ele>806.5</ele>
        <time>2015-06-02T10:16:42Z</time>
      </trkpt>
      <trkpt lat="45.07146" lon="6.0389">
        <ele>810.6</ele>
        <time>2015-06-02T10:16:48Z</time>
      </trkpt>
      <trkpt lat="45.07156" lon="6.03892">
        <ele>814.7</ele>
        <time>2015-06-02T10:16:53Z</time>
      </trkpt>
      <trkpt lat="45.07165" lon="6.03892">
        <ele>818.8</ele>
        <time>2015-06-02T10:17:00Z</time>
      </trkpt>
      <trkpt lat="45.07175" lon="6.03895">
        <ele>822.9</ele>
        <time>2015-06-02T10:17:06Z</time>
      </trkpt>
      <trkpt lat="45.07182" lon="6.03907">
        <ele>827</ele>
        <time>2015-06-02T10:17:10Z</time>
      </trkpt>
      <trkpt lat="45.07175" lon="6.0392">
        <ele>826.7</ele>
        <time>2015-06-02T10:17:13Z</time>
      </trkpt>
      <trkpt lat="45.07166" lon="6.03928">
        <ele>826.5</ele>
        <time>2015-06-02T10:17:17Z</time>
      </trkpt>
      <trkpt lat="45.07156" lon="6.03932">
        <ele>826.2</ele>
        <time>2015-06-02T10:17:22Z</time>
      </trkpt>
      <trkpt lat="45.07146" lon="6.03933">
        <ele>825.9</ele>
        <time>2015-06-02T10:17:29Z</time>
      </trkpt>
      <trkpt lat="45.07136" lon="6.03934">
        <ele>825.6</ele>
        <time>2015-06-02T10:17:34Z</time>
      </trkpt>
      <trkpt lat="45.07125" lon="6.03932">
        <ele>825.4</ele>
        <time>2015-06-02T10:17:38Z</time>
      </trkpt>
      <trkpt lat="45.07115" lon="6.03928">
        <ele>825.1</ele>
        <time>2015-06-02T10:17:43Z</time>
      </trkpt>
      <trkpt lat="45.07105" lon="6.03931">
        <ele>824.8</ele>
        <time>2015-06-02T10:17:50Z</time>
      </trkpt>
      <trkpt lat="45.07095" lon="6.03934">
        <ele>824.5</ele>
        <time>2015-06-02T10:17:56Z</time>
      </trkpt>
      <trkpt lat="45.07085" lon="6.03938">
        <ele>822.3</ele>
        <time>2015-06-02T10:18:01Z</time>
      </trkpt>
      <trkpt lat="45.07077" lon="6.03945">
        <ele>820</ele>
        <time>2015-06-02T10:18:05Z</time>
      </trkpt>
      <trkpt lat="45.07069" lon="6.03952">
        <ele>818</ele>
        <time>2015-06-02T10:18:10Z</time>
      </trkpt>
      <trkpt lat="45.07059" lon="6.0395">
        <ele>816</ele>
        <time>2015-06-02T10:18:14Z</time>
      </trkpt>
      <trkpt lat="45.07049" lon="6.03945">
        <ele>818</ele>
        <time>2015-06-02T10:18:19Z</time>
      </trkpt>
      <trkpt lat="45.07041" lon="6.03953">
        <ele>820</ele>
        <time>2015-06-02T10:18:29Z</time>
      </trkpt>
      <trkpt lat="45.07031" lon="6.03958">
        <ele>822</ele>
        <time>2015-06-02T10:18:35Z</time>
      </trkpt>
      <trkpt lat="45.07022" lon="6.03961">
        <ele>824</ele>
        <time>2015-06-02T10:18:39Z</time>
      </trkpt>
      <trkpt lat="45.07015" lon="6.03968">
        <ele>826</ele>
        <time>2015-06-02T10:18:45Z</time>
      </trkpt>
      <trkpt lat="45.07008" lon="6.0398">
        <ele>828</ele>
        <time>2015-06-02T10:18:50Z</time>
      </trkpt>
      <trkpt lat="45.07002" lon="6.0399">
        <ele>830</ele>
        <time>2015-06-02T10:18:55Z</time>
      </trkpt>
      <trkpt lat="45.06994" lon="6.03998">
        <ele>834</ele>
        <time>2015-06-02T10:19:00Z</time>
      </trkpt>
      <trkpt lat="45.06987" lon="6.04007">
        <ele>838.8</ele>
        <time>2015-06-02T10:19:05Z</time>
      </trkpt>
      <trkpt lat="45.06979" lon="6.04017">
        <ele>843.6</ele>
        <time>2015-06-02T10:19:10Z</time>
      </trkpt>
      <trkpt lat="45.06973" lon="6.04027">
        <ele>848.5</ele>
        <time>2015-06-02T10:19:16Z</time>
      </trkpt>
      <trkpt lat="45.06966" lon="6.04037">
        <ele>849.3</ele>
        <time>2015-06-02T10:19:21Z</time>
      </trkpt>
      <trkpt lat="45.0696" lon="6.04048">
        <ele>850.1</ele>
        <time>2015-06-02T10:19:26Z</time>
      </trkpt>
      <trkpt lat="45.06954" lon="6.04059">
        <ele>850.9</ele>
        <time>2015-06-02T10:19:31Z</time>
      </trkpt>
      <trkpt lat="45.06947" lon="6.04069">
        <ele>851.7</ele>
        <time>2015-06-02T10:19:37Z</time>
      </trkpt>
      <trkpt lat="45.0694" lon="6.04077">
        <ele>857.4</ele>
        <time>2015-06-02T10:19:43Z</time>
      </trkpt>
      <trkpt lat="45.06933" lon="6.04087">
        <ele>863</ele>
        <time>2015-06-02T10:19:50Z</time>
      </trkpt>
      <trkpt lat="45.06934" lon="6.04101">
        <ele>863.8</ele>
        <time>2015-06-02T10:19:54Z</time>
      </trkpt>
      <trkpt lat="45.06936" lon="6.04116">
        <ele>864.6</ele>
        <time>2015-06-02T10:19:57Z</time>
      </trkpt>
      <trkpt lat="45.06938" lon="6.0413">
        <ele>864.6</ele>
        <time>2015-06-02T10:20:00Z</time>
      </trkpt>
      <trkpt lat="45.0693" lon="6.04137">
        <ele>864.6</ele>
        <time>2015-06-02T10:20:08Z</time>
      </trkpt>
      <trkpt lat="45.0692" lon="6.04135">
        <ele>863.8</ele>
        <time>2015-06-02T10:20:12Z</time>
      </trkpt>
      <trkpt lat="45.0691" lon="6.04134">
        <ele>863</ele>
        <time>2015-06-02T10:20:16Z</time>
      </trkpt>
      <trkpt lat="45.06901" lon="6.04131">
        <ele>862.2</ele>
        <time>2015-06-02T10:20:22Z</time>
      </trkpt>
      <trkpt lat="45.06891" lon="6.0413">
        <ele>861.4</ele>
        <time>2015-06-02T10:20:29Z</time>
      </trkpt>
      <trkpt lat="45.06881" lon="6.04128">
        <ele>860.5</ele>
        <time>2015-06-02T10:20:33Z</time>
      </trkpt>
      <trkpt lat="45.06871" lon="6.04124">
        <ele>854.9</ele>
        <time>2015-06-02T10:20:36Z</time>
      </trkpt>
      <trkpt lat="45.06862" lon="6.04124">
        <ele>849.3</ele>
        <time>2015-06-02T10:20:41Z</time>
      </trkpt>
      <trkpt lat="45.06852" lon="6.04123">
        <ele>848.5</ele>
        <time>2015-06-02T10:20:47Z</time>
      </trkpt>
      <trkpt lat="45.06842" lon="6.04125">
        <ele>851.4</ele>
        <time>2015-06-02T10:20:52Z</time>
      </trkpt>
      <trkpt lat="45.06833" lon="6.04125">
        <ele>853.3</ele>
        <time>2015-06-02T10:20:57Z</time>
      </trkpt>
      <trkpt lat="45.06824" lon="6.04127">
        <ele>855.2</ele>
        <time>2015-06-02T10:21:03Z</time>
      </trkpt>
      <trkpt lat="45.06815" lon="6.04129">
        <ele>857.9</ele>
        <time>2015-06-02T10:21:07Z</time>
      </trkpt>
      <trkpt lat="45.06804" lon="6.04133">
        <ele>860.6</ele>
        <time>2015-06-02T10:21:13Z</time>
      </trkpt>
      <trkpt lat="45.06795" lon="6.04136">
        <ele>863.4</ele>
        <time>2015-06-02T10:21:17Z</time>
      </trkpt>
      <trkpt lat="45.06785" lon="6.04136">
        <ele>866.1</ele>
        <time>2015-06-02T10:21:23Z</time>
      </trkpt>
      <trkpt lat="45.06775" lon="6.04139">
        <ele>868.8</ele>
        <time>2015-06-02T10:21:29Z</time>
      </trkpt>
      <trkpt lat="45.06765" lon="6.04144">
        <ele>871.5</ele>
        <time>2015-06-02T10:21:35Z</time>
      </trkpt>
      <trkpt lat="45.06756" lon="6.04148">
        <ele>873</ele>
        <time>2015-06-02T10:21:39Z</time>
      </trkpt>
      <trkpt lat="45.06748" lon="6.04155">
        <ele>874.5</ele>
        <time>2015-06-02T10:21:47Z</time>
      </trkpt>
      <trkpt lat="45.06739" lon="6.04162">
        <ele>872.2</ele>
        <time>2015-06-02T10:21:53Z</time>
      </trkpt>
      <trkpt lat="45.0673" lon="6.04169">
        <ele>870.9</ele>
        <time>2015-06-02T10:21:59Z</time>
      </trkpt>
      <trkpt lat="45.0672" lon="6.04174">
        <ele>869.6</ele>
        <time>2015-06-02T10:22:05Z</time>
      </trkpt>
      <trkpt lat="45.0671" lon="6.04179">
        <ele>868.4</ele>
        <time>2015-06-02T10:22:12Z</time>
      </trkpt>
      <trkpt lat="45.06701" lon="6.04185">
        <ele>867.1</ele>
        <time>2015-06-02T10:22:17Z</time>
      </trkpt>
      <trkpt lat="45.06691" lon="6.04188">
        <ele>869.7</ele>
        <time>2015-06-02T10:22:22Z</time>
      </trkpt>
      <trkpt lat="45.06682" lon="6.04193">
        <ele>872.4</ele>
        <time>2015-06-02T10:22:27Z</time>
      </trkpt>
      <trkpt lat="45.06673" lon="6.04195">
        <ele>875</ele>
        <time>2015-06-02T10:22:33Z</time>
      </trkpt>
      <trkpt lat="45.06664" lon="6.04202">
        <ele>877.6</ele>
        <time>2015-06-02T10:22:41Z</time>
      </trkpt>
      <trkpt lat="45.06656" lon="6.0421">
        <ele>881.5</ele>
        <time>2015-06-02T10:22:48Z</time>
      </trkpt>
      <trkpt lat="45.06649" lon="6.04221">
        <ele>885.5</ele>
        <time>2015-06-02T10:22:54Z</time>
      </trkpt>
      <trkpt lat="45.06648" lon="6.04235">
        <ele>889.4</ele>
        <time>2015-06-02T10:22:59Z</time>
      </trkpt>
      <trkpt lat="45.06657" lon="6.04242">
        <ele>889.4</ele>
        <time>2015-06-02T10:23:03Z</time>
      </trkpt>
      <trkpt lat="45.06668" lon="6.04235">
        <ele>889.4</ele>
        <time>2015-06-02T10:23:07Z</time>
      </trkpt>
      <trkpt lat="45.06676" lon="6.04228">
        <ele>890.6</ele>
        <time>2015-06-02T10:23:11Z</time>
      </trkpt>
      <trkpt lat="45.06684" lon="6.04222">
        <ele>891.9</ele>
        <time>2015-06-02T10:23:17Z</time>
      </trkpt>
      <trkpt lat="45.06695" lon="6.04218">
        <ele>889.3</ele>
        <time>2015-06-02T10:23:24Z</time>
      </trkpt>
      <trkpt lat="45.06704" lon="6.0421">
        <ele>886.6</ele>
        <time>2015-06-02T10:23:29Z</time>
      </trkpt>
      <trkpt lat="45.06712" lon="6.04204">
        <ele>884</ele>
        <time>2015-06-02T10:23:34Z</time>
      </trkpt>
      <trkpt lat="45.0672" lon="6.04198">
        <ele>881.4</ele>
        <time>2015-06-02T10:23:40Z</time>
      </trkpt>
      <trkpt lat="45.06729" lon="6.04191">
        <ele>878.7</ele>
        <time>2015-06-02T10:23:47Z</time>
      </trkpt>
      <trkpt lat="45.06739" lon="6.04184">
        <ele>876.1</ele>
        <time>2015-06-02T10:23:52Z</time>
      </trkpt>
      <trkpt lat="45.06747" lon="6.0418">
        <ele>874.5</ele>
        <time>2015-06-02T10:23:57Z</time>
      </trkpt>
      <trkpt lat="45.06758" lon="6.04176">
        <ele>875.7</ele>
        <time>2015-06-02T10:24:03Z</time>
      </trkpt>
      <trkpt lat="45.06769" lon="6.04177">
        <ele>881.2</ele>
        <time>2015-06-02T10:24:09Z</time>
      </trkpt>
      <trkpt lat="45.06778" lon="6.04181">
        <ele>885.4</ele>
        <time>2015-06-02T10:24:14Z</time>
      </trkpt>
      <trkpt lat="45.06786" lon="6.04186">
        <ele>889.5</ele>
        <time>2015-06-02T10:24:19Z</time>
      </trkpt>
      <trkpt lat="45.06795" lon="6.04193">
        <ele>889.5</ele>
        <time>2015-06-02T10:24:25Z</time>
      </trkpt>
      <trkpt lat="45.06794" lon="6.04208">
        <ele>889.5</ele>
        <time>2015-06-02T10:24:32Z</time>
      </trkpt>
      <trkpt lat="45.0679" lon="6.04222">
        <ele>889.5</ele>
        <time>2015-06-02T10:24:37Z</time>
      </trkpt>
      <trkpt lat="45.06781" lon="6.04227">
        <ele>889.5</ele>
        <time>2015-06-02T10:24:43Z</time>
      </trkpt>
      <trkpt lat="45.06771" lon="6.04221">
        <ele>889.5</ele>
        <time>2015-06-02T10:24:46Z</time>
      </trkpt>
      <trkpt lat="45.06763" lon="6.04215">
        <ele>893.7</ele>
        <time>2015-06-02T10:24:49Z</time>
      </trkpt>
      <trkpt lat="45.06752" lon="6.04213">
        <ele>895.4</ele>
        <time>2015-06-02T10:24:54Z</time>
      </trkpt>
      <trkpt lat="45.06741" lon="6.0421">
        <ele>898</ele>
        <time>2015-06-02T10:25:01Z</time>
      </trkpt>
      <trkpt lat="45.06731" lon="6.04211">
        <ele>896.5</ele>
        <time>2015-06-02T10:25:06Z</time>
      </trkpt>
      <trkpt lat="45.06722" lon="6.04212">
        <ele>894.9</ele>
        <time>2015-06-02T10:25:12Z</time>
      </trkpt>
      <trkpt lat="45.06714" lon="6.0422">
        <ele>893.4</ele>
        <time>2015-06-02T10:25:20Z</time>
      </trkpt>
      <trkpt lat="45.06706" lon="6.0423">
        <ele>896</ele>
        <time>2015-06-02T10:25:26Z</time>
      </trkpt>
      <trkpt lat="45.067" lon="6.04239">
        <ele>898.6</ele>
        <time>2015-06-02T10:25:31Z</time>
      </trkpt>
      <trkpt lat="45.06694" lon="6.04248">
        <ele>901.3</ele>
        <time>2015-06-02T10:25:37Z</time>
      </trkpt>
      <trkpt lat="45.06686" lon="6.04258">
        <ele>903.9</ele>
        <time>2015-06-02T10:25:44Z</time>
      </trkpt>
      <trkpt lat="45.06677" lon="6.04262">
        <ele>906.5</ele>
        <time>2015-06-02T10:25:49Z</time>
      </trkpt>
      <trkpt lat="45.06668" lon="6.04267">
        <ele>901.5</ele>
        <time>2015-06-02T10:25:54Z</time>
      </trkpt>
      <trkpt lat="45.06659" lon="6.04271">
        <ele>897.9</ele>
        <time>2015-06-02T10:26:00Z</time>
      </trkpt>
      <trkpt lat="45.0665" lon="6.04277">
        <ele>894.4</ele>
        <time>2015-06-02T10:26:07Z</time>
      </trkpt>
      <trkpt lat="45.06641" lon="6.0428">
        <ele>892.1</ele>
        <time>2015-06-02T10:26:13Z</time>
      </trkpt>
      <trkpt lat="45.06632" lon="6.04285">
        <ele>889.8</ele>
        <time>2015-06-02T10:26:20Z</time>
      </trkpt>
      <trkpt lat="45.06624" lon="6.04289">
        <ele>887.5</ele>
        <time>2015-06-02T10:26:27Z</time>
      </trkpt>
      <trkpt lat="45.06614" lon="6.04293">
        <ele>885.3</ele>
        <time>2015-06-02T10:26:35Z</time>
      </trkpt>
      <trkpt lat="45.06605" lon="6.04298">
        <ele>883</ele>
        <time>2015-06-02T10:26:41Z</time>
      </trkpt>
      <trkpt lat="45.06597" lon="6.04305">
        <ele>880.7</ele>
        <time>2015-06-02T10:26:48Z</time>
      </trkpt>
      <trkpt lat="45.06592" lon="6.04319">
        <ele>883.6</ele>
        <time>2015-06-02T10:26:54Z</time>
      </trkpt>
      <trkpt lat="45.06593" lon="6.04332">
        <ele>886.5</ele>
        <time>2015-06-02T10:26:58Z</time>
      </trkpt>
      <trkpt lat="45.06602" lon="6.04342">
        <ele>893</ele>
        <time>2015-06-02T10:27:02Z</time>
      </trkpt>
      <trkpt lat="45.06612" lon="6.0434">
        <ele>899.5</ele>
        <time>2015-06-02T10:27:06Z</time>
      </trkpt>
      <trkpt lat="45.06622" lon="6.04332">
        <ele>905.9</ele>
        <time>2015-06-02T10:27:11Z</time>
      </trkpt>
      <trkpt lat="45.06631" lon="6.04326">
        <ele>911.1</ele>
        <time>2015-06-02T10:27:18Z</time>
      </trkpt>
      <trkpt lat="45.06642" lon="6.04324">
        <ele>916.3</ele>
        <time>2015-06-02T10:27:24Z</time>
      </trkpt>
      <trkpt lat="45.06652" lon="6.04323">
        <ele>921.5</ele>
        <time>2015-06-02T10:27:31Z</time>
      </trkpt>
      <trkpt lat="45.06661" lon="6.04322">
        <ele>923.7</ele>
        <time>2015-06-02T10:27:36Z</time>
      </trkpt>
      <trkpt lat="45.06671" lon="6.04318">
        <ele>927.5</ele>
        <time>2015-06-02T10:27:41Z</time>
      </trkpt>
      <trkpt lat="45.0668" lon="6.04313">
        <ele>931.4</ele>
        <time>2015-06-02T10:27:47Z</time>
      </trkpt>
      <trkpt lat="45.06688" lon="6.04305">
        <ele>930</ele>
        <time>2015-06-02T10:27:54Z</time>
      </trkpt>
      <trkpt lat="45.06696" lon="6.04299">
        <ele>928.6</ele>
        <time>2015-06-02T10:27:59Z</time>
      </trkpt>
      <trkpt lat="45.06705" lon="6.04292">
        <ele>927.3</ele>
        <time>2015-06-02T10:28:04Z</time>
      </trkpt>
      <trkpt lat="45.06714" lon="6.04287">
        <ele>925.9</ele>
        <time>2015-06-02T10:28:09Z</time>
      </trkpt>
      <trkpt lat="45.06723" lon="6.04283">
        <ele>924.5</ele>
        <time>2015-06-02T10:28:14Z</time>
      </trkpt>
      <trkpt lat="45.06733" lon="6.04285">
        <ele>923.2</ele>
        <time>2015-06-02T10:28:19Z</time>
      </trkpt>
      <trkpt lat="45.06742" lon="6.04284">
        <ele>921.8</ele>
        <time>2015-06-02T10:28:25Z</time>
      </trkpt>
      <trkpt lat="45.06752" lon="6.04284">
        <ele>923.1</ele>
        <time>2015-06-02T10:28:32Z</time>
      </trkpt>
      <trkpt lat="45.06762" lon="6.04282">
        <ele>927.3</ele>
        <time>2015-06-02T10:28:38Z</time>
      </trkpt>
      <trkpt lat="45.06772" lon="6.04277">
        <ele>929.9</ele>
        <time>2015-06-02T10:28:45Z</time>
      </trkpt>
      <trkpt lat="45.06781" lon="6.04273">
        <ele>932.5</ele>
        <time>2015-06-02T10:28:51Z</time>
      </trkpt>
      <trkpt lat="45.06791" lon="6.04268">
        <ele>935.2</ele>
        <time>2015-06-02T10:28:56Z</time>
      </trkpt>
      <trkpt lat="45.06801" lon="6.04263">
        <ele>937.8</ele>
        <time>2015-06-02T10:29:01Z</time>
      </trkpt>
      <trkpt lat="45.06812" lon="6.04262">
        <ele>940.5</ele>
        <time>2015-06-02T10:29:07Z</time>
      </trkpt>
      <trkpt lat="45.06822" lon="6.04262">
        <ele>943.1</ele>
        <time>2015-06-02T10:29:12Z</time>
      </trkpt>
      <trkpt lat="45.06831" lon="6.04261">
        <ele>947.4</ele>
        <time>2015-06-02T10:29:16Z</time>
      </trkpt>
      <trkpt lat="45.0684" lon="6.04262">
        <ele>951.6</ele>
        <time>2015-06-02T10:29:22Z</time>
      </trkpt>
      <trkpt lat="45.0685" lon="6.04265">
        <ele>955.9</ele>
        <time>2015-06-02T10:29:29Z</time>
      </trkpt>
      <trkpt lat="45.06859" lon="6.04265">
        <ele>955.9</ele>
        <time>2015-06-02T10:29:35Z</time>
      </trkpt>
      <trkpt lat="45.06869" lon="6.04266">
        <ele>955.9</ele>
        <time>2015-06-02T10:29:39Z</time>
      </trkpt>
      <trkpt lat="45.06879" lon="6.04271">
        <ele>955.9</ele>
        <time>2015-06-02T10:29:45Z</time>
      </trkpt>
      <trkpt lat="45.06887" lon="6.04279">
        <ele>955.9</ele>
        <time>2015-06-02T10:29:51Z</time>
      </trkpt>
      <trkpt lat="45.06881" lon="6.0429">
        <ele>959.5</ele>
        <time>2015-06-02T10:29:55Z</time>
      </trkpt>
      <trkpt lat="45.06871" lon="6.04291">
        <ele>963.2</ele>
        <time>2015-06-02T10:29:58Z</time>
      </trkpt>
      <trkpt lat="45.06861" lon="6.04293">
        <ele>966.8</ele>
        <time>2015-06-02T10:30:02Z</time>
      </trkpt>
      <trkpt lat="45.06852" lon="6.04293">
        <ele>970.5</ele>
        <time>2015-06-02T10:30:06Z</time>
      </trkpt>
      <trkpt lat="45.06843" lon="6.04297">
        <ele>972.5</ele>
        <time>2015-06-02T10:30:11Z</time>
      </trkpt>
      <trkpt lat="45.06836" lon="6.04304">
        <ele>972.3</ele>
        <time>2015-06-02T10:30:17Z</time>
      </trkpt>
      <trkpt lat="45.06829" lon="6.04312">
        <ele>972.1</ele>
        <time>2015-06-02T10:30:24Z</time>
      </trkpt>
      <trkpt lat="45.0682" lon="6.04319">
        <ele>973.5</ele>
        <time>2015-06-02T10:30:31Z</time>
      </trkpt>
      <trkpt lat="45.06812" lon="6.04326">
        <ele>975</ele>
        <time>2015-06-02T10:30:37Z</time>
      </trkpt>
      <trkpt lat="45.06801" lon="6.0433">
        <ele>976.5</ele>
        <time>2015-06-02T10:30:43Z</time>
      </trkpt>
      <trkpt lat="45.06791" lon="6.04332">
        <ele>977.9</ele>
        <time>2015-06-02T10:30:51Z</time>
      </trkpt>
      <trkpt lat="45.06783" lon="6.04337">
        <ele>975.7</ele>
        <time>2015-06-02T10:30:57Z</time>
      </trkpt>
      <trkpt lat="45.06774" lon="6.0434">
        <ele>973.5</ele>
        <time>2015-06-02T10:31:03Z</time>
      </trkpt>
      <trkpt lat="45.06766" lon="6.04347">
        <ele>971.4</ele>
        <time>2015-06-02T10:31:10Z</time>
      </trkpt>
      <trkpt lat="45.06756" lon="6.04355">
        <ele>970.4</ele>
        <time>2015-06-02T10:31:15Z</time>
      </trkpt>
      <trkpt lat="45.06748" lon="6.04362">
        <ele>969.4</ele>
        <time>2015-06-02T10:31:22Z</time>
      </trkpt>
      <trkpt lat="45.0674" lon="6.04367">
        <ele>970.5</ele>
        <time>2015-06-02T10:31:27Z</time>
      </trkpt>
      <trkpt lat="45.06731" lon="6.04372">
        <ele>971.7</ele>
        <time>2015-06-02T10:31:30Z</time>
      </trkpt>
      <trkpt lat="45.06723" lon="6.04379">
        <ele>972.9</ele>
        <time>2015-06-02T10:31:35Z</time>
      </trkpt>
      <trkpt lat="45.06719" lon="6.04392">
        <ele>974.1</ele>
        <time>2015-06-02T10:31:41Z</time>
      </trkpt>
      <trkpt lat="45.06722" lon="6.04405">
        <ele>975.3</ele>
        <time>2015-06-02T10:31:47Z</time>
      </trkpt>
      <trkpt lat="45.0673" lon="6.04415">
        <ele>976.5</ele>
        <time>2015-06-02T10:31:52Z</time>
      </trkpt>
      <trkpt lat="45.06739" lon="6.04424">
        <ele>977.6</ele>
        <time>2015-06-02T10:31:58Z</time>
      </trkpt>
      <trkpt lat="45.06749" lon="6.04429">
        <ele>977.7</ele>
        <time>2015-06-02T10:32:02Z</time>
      </trkpt>
      <trkpt lat="45.06759" lon="6.04436">
        <ele>978.9</ele>
        <time>2015-06-02T10:32:07Z</time>
      </trkpt>
      <trkpt lat="45.06766" lon="6.04444">
        <ele>978.9</ele>
        <time>2015-06-02T10:32:11Z</time>
      </trkpt>
      <trkpt lat="45.06776" lon="6.04452">
        <ele>978.9</ele>
        <time>2015-06-02T10:32:16Z</time>
      </trkpt>
      <trkpt lat="45.06785" lon="6.04461">
        <ele>978.9</ele>
        <time>2015-06-02T10:32:21Z</time>
      </trkpt>
      <trkpt lat="45.06793" lon="6.04468">
        <ele>978.9</ele>
        <time>2015-06-02T10:32:25Z</time>
      </trkpt>
      <trkpt lat="45.06803" lon="6.04471">
        <ele>978.9</ele>
        <time>2015-06-02T10:32:29Z</time>
      </trkpt>
      <trkpt lat="45.06814" lon="6.04473">
        <ele>978.9</ele>
        <time>2015-06-02T10:32:33Z</time>
      </trkpt>
      <trkpt lat="45.06823" lon="6.04473">
        <ele>978.9</ele>
        <time>2015-06-02T10:32:37Z</time>
      </trkpt>
      <trkpt lat="45.06832" lon="6.04476">
        <ele>980.6</ele>
        <time>2015-06-02T10:32:42Z</time>
      </trkpt>
      <trkpt lat="45.06841" lon="6.04479">
        <ele>982.4</ele>
        <time>2015-06-02T10:32:48Z</time>
      </trkpt>
      <trkpt lat="45.06851" lon="6.04479">
        <ele>985.2</ele>
        <time>2015-06-02T10:32:53Z</time>
      </trkpt>
      <trkpt lat="45.06862" lon="6.04479">
        <ele>986.9</ele>
        <time>2015-06-02T10:32:58Z</time>
      </trkpt>
      <trkpt lat="45.06873" lon="6.04481">
        <ele>988.6</ele>
        <time>2015-06-02T10:33:03Z</time>
      </trkpt>
      <trkpt lat="45.06881" lon="6.04485">
        <ele>990.4</ele>
        <time>2015-06-02T10:33:07Z</time>
      </trkpt>
      <trkpt lat="45.0689" lon="6.04492">
        <ele>992.1</ele>
        <time>2015-06-02T10:33:11Z</time>
      </trkpt>
      <trkpt lat="45.06898" lon="6.04502">
        <ele>992.1</ele>
        <time>2015-06-02T10:33:15Z</time>
      </trkpt>
      <trkpt lat="45.06905" lon="6.04515">
        <ele>992.1</ele>
        <time>2015-06-02T10:33:19Z</time>
      </trkpt>
      <trkpt lat="45.06913" lon="6.04525">
        <ele>992.1</ele>
        <time>2015-06-02T10:33:23Z</time>
      </trkpt>
      <trkpt lat="45.06923" lon="6.04534">
        <ele>994</ele>
        <time>2015-06-02T10:33:28Z</time>
      </trkpt>
      <trkpt lat="45.06931" lon="6.04541">
        <ele>994.2</ele>
        <time>2015-06-02T10:33:32Z</time>
      </trkpt>
      <trkpt lat="45.06939" lon="6.0455">
        <ele>994.4</ele>
        <time>2015-06-02T10:33:37Z</time>
      </trkpt>
      <trkpt lat="45.06947" lon="6.04556">
        <ele>994.5</ele>
        <time>2015-06-02T10:33:42Z</time>
      </trkpt>
      <trkpt lat="45.06955" lon="6.04561">
        <ele>994.7</ele>
        <time>2015-06-02T10:33:47Z</time>
      </trkpt>
      <trkpt lat="45.06965" lon="6.04567">
        <ele>994.9</ele>
        <time>2015-06-02T10:33:52Z</time>
      </trkpt>
      <trkpt lat="45.06975" lon="6.04572">
        <ele>995.1</ele>
        <time>2015-06-02T10:33:58Z</time>
      </trkpt>
      <trkpt lat="45.06985" lon="6.04577">
        <ele>995.3</ele>
        <time>2015-06-02T10:34:04Z</time>
      </trkpt>
      <trkpt lat="45.06993" lon="6.04583">
        <ele>995.6</ele>
        <time>2015-06-02T10:34:10Z</time>
      </trkpt>
      <trkpt lat="45.07001" lon="6.0459">
        <ele>996</ele>
        <time>2015-06-02T10:34:15Z</time>
      </trkpt>
      <trkpt lat="45.0701" lon="6.04598">
        <ele>996.4</ele>
        <time>2015-06-02T10:34:21Z</time>
      </trkpt>
      <trkpt lat="45.07016" lon="6.04607">
        <ele>994.8</ele>
        <time>2015-06-02T10:34:27Z</time>
      </trkpt>
      <trkpt lat="45.07021" lon="6.04619">
        <ele>996.8</ele>
        <time>2015-06-02T10:34:32Z</time>
      </trkpt>
      <trkpt lat="45.07027" lon="6.0463">
        <ele>998.8</ele>
        <time>2015-06-02T10:34:38Z</time>
      </trkpt>
      <trkpt lat="45.07033" lon="6.04641">
        <ele>1000.8</ele>
        <time>2015-06-02T10:34:45Z</time>
      </trkpt>
      <trkpt lat="45.07038" lon="6.04653">
        <ele>1002.8</ele>
        <time>2015-06-02T10:34:50Z</time>
      </trkpt>
      <trkpt lat="45.07044" lon="6.04664">
        <ele>1004.8</ele>
        <time>2015-06-02T10:34:56Z</time>
      </trkpt>
      <trkpt lat="45.0705" lon="6.04674">
        <ele>1005.4</ele>
        <time>2015-06-02T10:35:01Z</time>
      </trkpt>
      <trkpt lat="45.07058" lon="6.04682">
        <ele>1005.9</ele>
        <time>2015-06-02T10:35:07Z</time>
      </trkpt>
      <trkpt lat="45.07065" lon="6.04691">
        <ele>1008</ele>
        <time>2015-06-02T10:35:12Z</time>
      </trkpt>
      <trkpt lat="45.07073" lon="6.04695">
        <ele>1010.1</ele>
        <time>2015-06-02T10:35:17Z</time>
      </trkpt>
      <trkpt lat="45.07081" lon="6.04702">
        <ele>1012.2</ele>
        <time>2015-06-02T10:35:23Z</time>
      </trkpt>
      <trkpt lat="45.07089" lon="6.04712">
        <ele>1017</ele>
        <time>2015-06-02T10:35:30Z</time>
      </trkpt>
      <trkpt lat="45.07098" lon="6.04718">
        <ele>1018.3</ele>
        <time>2015-06-02T10:35:36Z</time>
      </trkpt>
      <trkpt lat="45.07107" lon="6.04726">
        <ele>1019.5</ele>
        <time>2015-06-02T10:35:43Z</time>
      </trkpt>
      <trkpt lat="45.07116" lon="6.0473">
        <ele>1020.8</ele>
        <time>2015-06-02T10:35:49Z</time>
      </trkpt>
      <trkpt lat="45.07124" lon="6.04739">
        <ele>1022.1</ele>
        <time>2015-06-02T10:35:56Z</time>
      </trkpt>
      <trkpt lat="45.07133" lon="6.04746">
        <ele>1023.4</ele>
        <time>2015-06-02T10:36:03Z</time>
      </trkpt>
      <trkpt lat="45.07141" lon="6.04755">
        <ele>1026.1</ele>
        <time>2015-06-02T10:36:09Z</time>
      </trkpt>
      <trkpt lat="45.07149" lon="6.04762">
        <ele>1026.8</ele>
        <time>2015-06-02T10:36:16Z</time>
      </trkpt>
      <trkpt lat="45.07155" lon="6.04772">
        <ele>1027.5</ele>
        <time>2015-06-02T10:36:22Z</time>
      </trkpt>
      <trkpt lat="45.07164" lon="6.04779">
        <ele>1028.3</ele>
        <time>2015-06-02T10:36:29Z</time>
      </trkpt>
      <trkpt lat="45.07172" lon="6.04786">
        <ele>1031</ele>
        <time>2015-06-02T10:36:37Z</time>
      </trkpt>
      <trkpt lat="45.07178" lon="6.04796">
        <ele>1031</ele>
        <time>2015-06-02T10:36:45Z</time>
      </trkpt>
      <trkpt lat="45.07185" lon="6.04806">
        <ele>1031</ele>
        <time>2015-06-02T10:36:53Z</time>
      </trkpt>
      <trkpt lat="45.07193" lon="6.04813">
        <ele>1031</ele>
        <time>2015-06-02T10:37:01Z</time>
      </trkpt>
      <trkpt lat="45.07202" lon="6.04812">
        <ele>1031</ele>
        <time>2015-06-02T10:37:06Z</time>
      </trkpt>
      <trkpt lat="45.07212" lon="6.04803">
        <ele>1031</ele>
        <time>2015-06-02T10:37:11Z</time>
      </trkpt>
      <trkpt lat="45.07209" lon="6.04788">
        <ele>1031</ele>
        <time>2015-06-02T10:37:16Z</time>
      </trkpt>
      <trkpt lat="45.072" lon="6.0478">
        <ele>1031</ele>
        <time>2015-06-02T10:37:20Z</time>
      </trkpt>
      <trkpt lat="45.07192" lon="6.04775">
        <ele>1033</ele>
        <time>2015-06-02T10:37:23Z</time>
      </trkpt>
      <trkpt lat="45.07181" lon="6.04768">
        <ele>1035</ele>
        <time>2015-06-02T10:37:27Z</time>
      </trkpt>
      <trkpt lat="45.07174" lon="6.04759">
        <ele>1039.2</ele>
        <time>2015-06-02T10:37:31Z</time>
      </trkpt>
      <trkpt lat="45.07165" lon="6.04749">
        <ele>1041.4</ele>
        <time>2015-06-02T10:37:35Z</time>
      </trkpt>
      <trkpt lat="45.07158" lon="6.04736">
        <ele>1040.1</ele>
        <time>2015-06-02T10:37:39Z</time>
      </trkpt>
      <trkpt lat="45.07153" lon="6.04725">
        <ele>1038.8</ele>
        <time>2015-06-02T10:37:42Z</time>
      </trkpt>
      <trkpt lat="45.07146" lon="6.04715">
        <ele>1037.5</ele>
        <time>2015-06-02T10:37:46Z</time>
      </trkpt>
      <trkpt lat="45.07138" lon="6.04705">
        <ele>1036.3</ele>
        <time>2015-06-02T10:37:50Z</time>
      </trkpt>
      <trkpt lat="45.07131" lon="6.04695">
        <ele>1035</ele>
        <time>2015-06-02T10:37:54Z</time>
      </trkpt>
      <trkpt lat="45.07125" lon="6.04685">
        <ele>1034.5</ele>
        <time>2015-06-02T10:37:58Z</time>
      </trkpt>
      <trkpt lat="45.07118" lon="6.04674">
        <ele>1033.9</ele>
        <time>2015-06-02T10:38:02Z</time>
      </trkpt>
      <trkpt lat="45.07114" lon="6.0466">
        <ele>1033.4</ele>
        <time>2015-06-02T10:38:06Z</time>
      </trkpt>
      <trkpt lat="45.07112" lon="6.04647">
        <ele>1032.8</ele>
        <time>2015-06-02T10:38:10Z</time>
      </trkpt>
      <trkpt lat="45.07111" lon="6.04633">
        <ele>1030.1</ele>
        <time>2015-06-02T10:38:14Z</time>
      </trkpt>
      <trkpt lat="45.07112" lon="6.04618">
        <ele>1028.4</ele>
        <time>2015-06-02T10:38:19Z</time>
      </trkpt>
      <trkpt lat="45.07112" lon="6.04603">
        <ele>1030.1</ele>
        <time>2015-06-02T10:38:24Z</time>
      </trkpt>
      <trkpt lat="45.07111" lon="6.04589">
        <ele>1031.8</ele>
        <time>2015-06-02T10:38:29Z</time>
      </trkpt>
      <trkpt lat="45.07113" lon="6.04574">
        <ele>1033.5</ele>
        <time>2015-06-02T10:38:34Z</time>
      </trkpt>
      <trkpt lat="45.07114" lon="6.04561">
        <ele>1035.3</ele>
        <time>2015-06-02T10:38:39Z</time>
      </trkpt>
      <trkpt lat="45.07114" lon="6.04545">
        <ele>1037</ele>
        <time>2015-06-02T10:38:45Z</time>
      </trkpt>
      <trkpt lat="45.07115" lon="6.04532">
        <ele>1038</ele>
        <time>2015-06-02T10:38:49Z</time>
      </trkpt>
      <trkpt lat="45.07115" lon="6.04516">
        <ele>1041.4</ele>
        <time>2015-06-02T10:38:54Z</time>
      </trkpt>
      <trkpt lat="45.07116" lon="6.04502">
        <ele>1044.7</ele>
        <time>2015-06-02T10:39:00Z</time>
      </trkpt>
      <trkpt lat="45.07114" lon="6.04487">
        <ele>1048.1</ele>
        <time>2015-06-02T10:39:05Z</time>
      </trkpt>
      <trkpt lat="45.07111" lon="6.04474">
        <ele>1051.5</ele>
        <time>2015-06-02T10:39:09Z</time>
      </trkpt>
      <trkpt lat="45.07106" lon="6.04464">
        <ele>1053.8</ele>
        <time>2015-06-02T10:39:14Z</time>
      </trkpt>
      <trkpt lat="45.07102" lon="6.04452">
        <ele>1053.8</ele>
        <time>2015-06-02T10:39:19Z</time>
      </trkpt>
      <trkpt lat="45.07098" lon="6.04439">
        <ele>1056.6</ele>
        <time>2015-06-02T10:39:26Z</time>
      </trkpt>
      <trkpt lat="45.07107" lon="6.04434">
        <ele>1059.5</ele>
        <time>2015-06-02T10:39:35Z</time>
      </trkpt>
      <trkpt lat="45.07114" lon="6.04446">
        <ele>1062.3</ele>
        <time>2015-06-02T10:39:39Z</time>
      </trkpt>
      <trkpt lat="45.07119" lon="6.04458">
        <ele>1065.1</ele>
        <time>2015-06-02T10:39:44Z</time>
      </trkpt>
      <trkpt lat="45.07125" lon="6.04468">
        <ele>1067.9</ele>
        <time>2015-06-02T10:39:49Z</time>
      </trkpt>
      <trkpt lat="45.07131" lon="6.0448">
        <ele>1068.1</ele>
        <time>2015-06-02T10:39:54Z</time>
      </trkpt>
      <trkpt lat="45.07135" lon="6.04494">
        <ele>1068.3</ele>
        <time>2015-06-02T10:39:58Z</time>
      </trkpt>
      <trkpt lat="45.07136" lon="6.04506">
        <ele>1068.5</ele>
        <time>2015-06-02T10:40:02Z</time>
      </trkpt>
      <trkpt lat="45.07138" lon="6.0452">
        <ele>1068.6</ele>
        <time>2015-06-02T10:40:07Z</time>
      </trkpt>
      <trkpt lat="45.07141" lon="6.04533">
        <ele>1068.8</ele>
        <time>2015-06-02T10:40:13Z</time>
      </trkpt>
      <trkpt lat="45.07143" lon="6.04546">
        <ele>1071.4</ele>
        <time>2015-06-02T10:40:18Z</time>
      </trkpt>
      <trkpt lat="45.07145" lon="6.04559">
        <ele>1070.3</ele>
        <time>2015-06-02T10:40:23Z</time>
      </trkpt>
      <trkpt lat="45.07146" lon="6.04573">
        <ele>1069.2</ele>
        <time>2015-06-02T10:40:29Z</time>
      </trkpt>
      <trkpt lat="45.07148" lon="6.04588">
        <ele>1068.1</ele>
        <time>2015-06-02T10:40:35Z</time>
      </trkpt>
      <trkpt lat="45.07152" lon="6.04602">
        <ele>1067</ele>
        <time>2015-06-02T10:40:42Z</time>
      </trkpt>
      <trkpt lat="45.07157" lon="6.04613">
        <ele>1065.9</ele>
        <time>2015-06-02T10:40:48Z</time>
      </trkpt>
      <trkpt lat="45.07159" lon="6.04627">
        <ele>1065.1</ele>
        <time>2015-06-02T10:40:55Z</time>
      </trkpt>
      <trkpt lat="45.07161" lon="6.04641">
        <ele>1064.3</ele>
        <time>2015-06-02T10:41:00Z</time>
      </trkpt>
      <trkpt lat="45.07164" lon="6.04654">
        <ele>1063.5</ele>
        <time>2015-06-02T10:41:04Z</time>
      </trkpt>
      <trkpt lat="45.07169" lon="6.04665">
        <ele>1062.6</ele>
        <time>2015-06-02T10:41:09Z</time>
      </trkpt>
      <trkpt lat="45.07177" lon="6.04674">
        <ele>1065.8</ele>
        <time>2015-06-02T10:41:15Z</time>
      </trkpt>
      <trkpt lat="45.07184" lon="6.04683">
        <ele>1066.2</ele>
        <time>2015-06-02T10:41:20Z</time>
      </trkpt>
      <trkpt lat="45.07193" lon="6.04693">
        <ele>1067.4</ele>
        <time>2015-06-02T10:41:25Z</time>
      </trkpt>
      <trkpt lat="45.072" lon="6.04701">
        <ele>1068.5</ele>
        <time>2015-06-02T10:41:29Z</time>
      </trkpt>
      <trkpt lat="45.07209" lon="6.04705">
        <ele>1069.7</ele>
        <time>2015-06-02T10:41:34Z</time>
      </trkpt>
      <trkpt lat="45.07218" lon="6.04709">
        <ele>1070.9</ele>
        <time>2015-06-02T10:41:39Z</time>
      </trkpt>
      <trkpt lat="45.07228" lon="6.04716">
        <ele>1072.1</ele>
        <time>2015-06-02T10:41:44Z</time>
      </trkpt>
      <trkpt lat="45.07236" lon="6.04721">
        <ele>1073.3</ele>
        <time>2015-06-02T10:41:49Z</time>
      </trkpt>
      <trkpt lat="45.07245" lon="6.04727">
        <ele>1074.5</ele>
        <time>2015-06-02T10:41:54Z</time>
      </trkpt>
      <trkpt lat="45.07254" lon="6.04733">
        <ele>1077.8</ele>
        <time>2015-06-02T10:41:58Z</time>
      </trkpt>
      <trkpt lat="45.07263" lon="6.04738">
        <ele>1081.2</ele>
        <time>2015-06-02T10:42:03Z</time>
      </trkpt>
      <trkpt lat="45.07271" lon="6.04745">
        <ele>1080.5</ele>
        <time>2015-06-02T10:42:08Z</time>
      </trkpt>
      <trkpt lat="45.07279" lon="6.04753">
        <ele>1082.7</ele>
        <time>2015-06-02T10:42:13Z</time>
      </trkpt>
      <trkpt lat="45.07288" lon="6.04758">
        <ele>1084.9</ele>
        <time>2015-06-02T10:42:18Z</time>
      </trkpt>
      <trkpt lat="45.07297" lon="6.04764">
        <ele>1087.1</ele>
        <time>2015-06-02T10:42:23Z</time>
      </trkpt>
      <trkpt lat="45.07306" lon="6.04768">
        <ele>1089.3</ele>
        <time>2015-06-02T10:42:28Z</time>
      </trkpt>
      <trkpt lat="45.07315" lon="6.04769">
        <ele>1091.5</ele>
        <time>2015-06-02T10:42:32Z</time>
      </trkpt>
      <trkpt lat="45.07326" lon="6.04768">
        <ele>1092.3</ele>
        <time>2015-06-02T10:42:37Z</time>
      </trkpt>
      <trkpt lat="45.07337" lon="6.0477">
        <ele>1093.1</ele>
        <time>2015-06-02T10:42:42Z</time>
      </trkpt>
      <trkpt lat="45.07346" lon="6.04777">
        <ele>1093.9</ele>
        <time>2015-06-02T10:42:47Z</time>
      </trkpt>
      <trkpt lat="45.07352" lon="6.0479">
        <ele>1092.5</ele>
        <time>2015-06-02T10:42:51Z</time>
      </trkpt>
      <trkpt lat="45.07357" lon="6.04802">
        <ele>1091.2</ele>
        <time>2015-06-02T10:42:55Z</time>
      </trkpt>
      <trkpt lat="45.0736" lon="6.04814">
        <ele>1089.8</ele>
        <time>2015-06-02T10:42:59Z</time>
      </trkpt>
      <trkpt lat="45.07363" lon="6.04826">
        <ele>1089.1</ele>
        <time>2015-06-02T10:43:03Z</time>
      </trkpt>
      <trkpt lat="45.07367" lon="6.04841">
        <ele>1088.4</ele>
        <time>2015-06-02T10:43:08Z</time>
      </trkpt>
      <trkpt lat="45.0737" lon="6.04854">
        <ele>1087.6</ele>
        <time>2015-06-02T10:43:12Z</time>
      </trkpt>
      <trkpt lat="45.07372" lon="6.04868">
        <ele>1086.9</ele>
        <time>2015-06-02T10:43:17Z</time>
      </trkpt>
      <trkpt lat="45.07369" lon="6.04882">
        <ele>1086.2</ele>
        <time>2015-06-02T10:43:22Z</time>
      </trkpt>
      <trkpt lat="45.07363" lon="6.04892">
        <ele>1086.8</ele>
        <time>2015-06-02T10:43:26Z</time>
      </trkpt>
      <trkpt lat="45.07358" lon="6.04902">
        <ele>1087.5</ele>
        <time>2015-06-02T10:43:30Z</time>
      </trkpt>
      <trkpt lat="45.07352" lon="6.04913">
        <ele>1090.5</ele>
        <time>2015-06-02T10:43:37Z</time>
      </trkpt>
      <trkpt lat="45.07348" lon="6.04924">
        <ele>1093.5</ele>
        <time>2015-06-02T10:43:42Z</time>
      </trkpt>
      <trkpt lat="45.07345" lon="6.04938">
        <ele>1096.5</ele>
        <time>2015-06-02T10:43:46Z</time>
      </trkpt>
      <trkpt lat="45.07341" lon="6.04951">
        <ele>1099.5</ele>
        <time>2015-06-02T10:43:49Z</time>
      </trkpt>
      <trkpt lat="45.07338" lon="6.04963">
        <ele>1101.8</ele>
        <time>2015-06-02T10:43:52Z</time>
      </trkpt>
      <trkpt lat="45.07334" lon="6.04975">
        <ele>1104.2</ele>
        <time>2015-06-02T10:43:57Z</time>
      </trkpt>
      <trkpt lat="45.07328" lon="6.04986">
        <ele>1106.5</ele>
        <time>2015-06-02T10:44:02Z</time>
      </trkpt>
      <trkpt lat="45.07322" lon="6.04999">
        <ele>1107.6</ele>
        <time>2015-06-02T10:44:07Z</time>
      </trkpt>
      <trkpt lat="45.07317" lon="6.05009">
        <ele>1108.7</ele>
        <time>2015-06-02T10:44:13Z</time>
      </trkpt>
      <trkpt lat="45.07311" lon="6.05022">
        <ele>1109.8</ele>
        <time>2015-06-02T10:44:18Z</time>
      </trkpt>
      <trkpt lat="45.07305" lon="6.05035">
        <ele>1110.9</ele>
        <time>2015-06-02T10:44:24Z</time>
      </trkpt>
      <trkpt lat="45.07302" lon="6.05049">
        <ele>1109.6</ele>
        <time>2015-06-02T10:44:30Z</time>
      </trkpt>
      <trkpt lat="45.07294" lon="6.05057">
        <ele>1108.4</ele>
        <time>2015-06-02T10:44:36Z</time>
      </trkpt>
      <trkpt lat="45.07286" lon="6.05067">
        <ele>1107.1</ele>
        <time>2015-06-02T10:44:41Z</time>
      </trkpt>
      <trkpt lat="45.07281" lon="6.05079">
        <ele>1107.9</ele>
        <time>2015-06-02T10:44:47Z</time>
      </trkpt>
      <trkpt lat="45.07274" lon="6.0509">
        <ele>1108.7</ele>
        <time>2015-06-02T10:44:52Z</time>
      </trkpt>
      <trkpt lat="45.07269" lon="6.05102">
        <ele>1107.5</ele>
        <time>2015-06-02T10:44:57Z</time>
      </trkpt>
      <trkpt lat="45.07262" lon="6.05113">
        <ele>1106.2</ele>
        <time>2015-06-02T10:45:02Z</time>
      </trkpt>
      <trkpt lat="45.07255" lon="6.05125">
        <ele>1106.2</ele>
        <time>2015-06-02T10:45:08Z</time>
      </trkpt>
      <trkpt lat="45.07254" lon="6.05139">
        <ele>1106.2</ele>
        <time>2015-06-02T10:45:14Z</time>
      </trkpt>
      <trkpt lat="45.07264" lon="6.05144">
        <ele>1106.2</ele>
        <time>2015-06-02T10:45:20Z</time>
      </trkpt>
      <trkpt lat="45.07271" lon="6.05134">
        <ele>1110.5</ele>
        <time>2015-06-02T10:45:24Z</time>
      </trkpt>
      <trkpt lat="45.07276" lon="6.0512">
        <ele>1114.7</ele>
        <time>2015-06-02T10:45:27Z</time>
      </trkpt>
      <trkpt lat="45.0728" lon="6.05108">
        <ele>1119</ele>
        <time>2015-06-02T10:45:30Z</time>
      </trkpt>
      <trkpt lat="45.07284" lon="6.05097">
        <ele>1120.3</ele>
        <time>2015-06-02T10:45:34Z</time>
      </trkpt>
      <trkpt lat="45.07289" lon="6.05086">
        <ele>1119.5</ele>
        <time>2015-06-02T10:45:39Z</time>
      </trkpt>
      <trkpt lat="45.07298" lon="6.05077">
        <ele>1118.6</ele>
        <time>2015-06-02T10:45:45Z</time>
      </trkpt>
      <trkpt lat="45.07306" lon="6.05067">
        <ele>1119.9</ele>
        <time>2015-06-02T10:45:51Z</time>
      </trkpt>
      <trkpt lat="45.07314" lon="6.0506">
        <ele>1121.2</ele>
        <time>2015-06-02T10:45:56Z</time>
      </trkpt>
      <trkpt lat="45.07321" lon="6.05051">
        <ele>1122.5</ele>
        <time>2015-06-02T10:46:01Z</time>
      </trkpt>
      <trkpt lat="45.0733" lon="6.05043">
        <ele>1123.7</ele>
        <time>2015-06-02T10:46:07Z</time>
      </trkpt>
      <trkpt lat="45.07338" lon="6.05036">
        <ele>1128.2</ele>
        <time>2015-06-02T10:46:12Z</time>
      </trkpt>
      <trkpt lat="45.07347" lon="6.0503">
        <ele>1128.4</ele>
        <time>2015-06-02T10:46:17Z</time>
      </trkpt>
      <trkpt lat="45.07354" lon="6.05019">
        <ele>1128.5</ele>
        <time>2015-06-02T10:46:23Z</time>
      </trkpt>
      <trkpt lat="45.07363" lon="6.05013">
        <ele>1128.7</ele>
        <time>2015-06-02T10:46:28Z</time>
      </trkpt>
      <trkpt lat="45.07373" lon="6.05007">
        <ele>1129.2</ele>
        <time>2015-06-02T10:46:33Z</time>
      </trkpt>
      <trkpt lat="45.07381" lon="6.04998">
        <ele>1129.6</ele>
        <time>2015-06-02T10:46:38Z</time>
      </trkpt>
      <trkpt lat="45.07388" lon="6.04988">
        <ele>1130.1</ele>
        <time>2015-06-02T10:46:44Z</time>
      </trkpt>
      <trkpt lat="45.07396" lon="6.0498">
        <ele>1130.5</ele>
        <time>2015-06-02T10:46:48Z</time>
      </trkpt>
      <trkpt lat="45.07404" lon="6.04972">
        <ele>1131</ele>
        <time>2015-06-02T10:46:54Z</time>
      </trkpt>
      <trkpt lat="45.07413" lon="6.04968">
        <ele>1134.9</ele>
        <time>2015-06-02T10:46:59Z</time>
      </trkpt>
      <trkpt lat="45.07423" lon="6.04966">
        <ele>1138.8</ele>
        <time>2015-06-02T10:47:05Z</time>
      </trkpt>
      <trkpt lat="45.07434" lon="6.04965">
        <ele>1139.5</ele>
        <time>2015-06-02T10:47:11Z</time>
      </trkpt>
      <trkpt lat="45.07445" lon="6.04967">
        <ele>1140.3</ele>
        <time>2015-06-02T10:47:16Z</time>
      </trkpt>
      <trkpt lat="45.07456" lon="6.04966">
        <ele>1141</ele>
        <time>2015-06-02T10:47:21Z</time>
      </trkpt>
      <trkpt lat="45.07466" lon="6.04963">
        <ele>1141.7</ele>
        <time>2015-06-02T10:47:28Z</time>
      </trkpt>
      <trkpt lat="45.07474" lon="6.04958">
        <ele>1145.2</ele>
        <time>2015-06-02T10:47:34Z</time>
      </trkpt>
      <trkpt lat="45.07481" lon="6.0495">
        <ele>1148.6</ele>
        <time>2015-06-02T10:47:40Z</time>
      </trkpt>
      <trkpt lat="45.07488" lon="6.0494">
        <ele>1152</ele>
        <time>2015-06-02T10:47:45Z</time>
      </trkpt>
      <trkpt lat="45.07493" lon="6.04928">
        <ele>1155.4</ele>
        <time>2015-06-02T10:47:51Z</time>
      </trkpt>
      <trkpt lat="45.07494" lon="6.04914">
        <ele>1158.7</ele>
        <time>2015-06-02T10:47:57Z</time>
      </trkpt>
      <trkpt lat="45.07502" lon="6.04906">
        <ele>1158.6</ele>
        <time>2015-06-02T10:48:01Z</time>
      </trkpt>
      <trkpt lat="45.07506" lon="6.04894">
        <ele>1158.5</ele>
        <time>2015-06-02T10:48:07Z</time>
      </trkpt>
      <trkpt lat="45.07507" lon="6.0488">
        <ele>1158.5</ele>
        <time>2015-06-02T10:48:13Z</time>
      </trkpt>
      <trkpt lat="45.07507" lon="6.04865">
        <ele>1158.8</ele>
        <time>2015-06-02T10:48:19Z</time>
      </trkpt>
      <trkpt lat="45.07508" lon="6.04849">
        <ele>1159.2</ele>
        <time>2015-06-02T10:48:26Z</time>
      </trkpt>
      <trkpt lat="45.07505" lon="6.04837">
        <ele>1159.5</ele>
        <time>2015-06-02T10:48:31Z</time>
      </trkpt>
      <trkpt lat="45.07502" lon="6.04824">
        <ele>1159.9</ele>
        <time>2015-06-02T10:48:37Z</time>
      </trkpt>
      <trkpt lat="45.07497" lon="6.0481">
        <ele>1160.3</ele>
        <time>2015-06-02T10:48:44Z</time>
      </trkpt>
      <trkpt lat="45.07493" lon="6.04798">
        <ele>1160.7</ele>
        <time>2015-06-02T10:48:49Z</time>
      </trkpt>
      <trkpt lat="45.07487" lon="6.04785">
        <ele>1160.7</ele>
        <time>2015-06-02T10:48:55Z</time>
      </trkpt>
      <trkpt lat="45.07485" lon="6.0477">
        <ele>1160.7</ele>
        <time>2015-06-02T10:49:00Z</time>
      </trkpt>
      <trkpt lat="45.07494" lon="6.04772">
        <ele>1160.7</ele>
        <time>2015-06-02T10:49:05Z</time>
      </trkpt>
      <trkpt lat="45.07497" lon="6.04787">
        <ele>1160.7</ele>
        <time>2015-06-02T10:49:09Z</time>
      </trkpt>
      <trkpt lat="45.075" lon="6.04802">
        <ele>1160.7</ele>
        <time>2015-06-02T10:49:14Z</time>
      </trkpt>
      <trkpt lat="45.07505" lon="6.04815">
        <ele>1160.3</ele>
        <time>2015-06-02T10:49:18Z</time>
      </trkpt>
      <trkpt lat="45.0751" lon="6.04828">
        <ele>1159.9</ele>
        <time>2015-06-02T10:49:24Z</time>
      </trkpt>
      <trkpt lat="45.07515" lon="6.04839">
        <ele>1159.5</ele>
        <time>2015-06-02T10:49:30Z</time>
      </trkpt>
      <trkpt lat="45.0752" lon="6.04851">
        <ele>1159.2</ele>
        <time>2015-06-02T10:49:37Z</time>
      </trkpt>
      <trkpt lat="45.07524" lon="6.04863">
        <ele>1158.8</ele>
        <time>2015-06-02T10:49:42Z</time>
      </trkpt>
      <trkpt lat="45.07525" lon="6.04877">
        <ele>1158.5</ele>
        <time>2015-06-02T10:49:50Z</time>
      </trkpt>
      <trkpt lat="45.07525" lon="6.04892">
        <ele>1158.5</ele>
        <time>2015-06-02T10:49:56Z</time>
      </trkpt>
      <trkpt lat="45.07527" lon="6.04907">
        <ele>1160.9</ele>
        <time>2015-06-02T10:50:01Z</time>
      </trkpt>
      <trkpt lat="45.0753" lon="6.04919">
        <ele>1163.3</ele>
        <time>2015-06-02T10:50:07Z</time>
      </trkpt>
      <trkpt lat="45.07529" lon="6.04933">
        <ele>1165.6</ele>
        <time>2015-06-02T10:50:11Z</time>
      </trkpt>
      <trkpt lat="45.07529" lon="6.04947">
        <ele>1168</ele>
        <time>2015-06-02T10:50:16Z</time>
      </trkpt>
      <trkpt lat="45.07529" lon="6.0496">
        <ele>1170.4</ele>
        <time>2015-06-02T10:50:24Z</time>
      </trkpt>
      <trkpt lat="45.07531" lon="6.04976">
        <ele>1172.6</ele>
        <time>2015-06-02T10:50:33Z</time>
      </trkpt>
      <trkpt lat="45.07525" lon="6.04994">
        <ele>1174.9</ele>
        <time>2015-06-02T10:50:37Z</time>
      </trkpt>
      <trkpt lat="45.07518" lon="6.05005">
        <ele>1177.2</ele>
        <time>2015-06-02T10:50:39Z</time>
      </trkpt>
      <trkpt lat="45.07508" lon="6.05016">
        <ele>1179.5</ele>
        <time>2015-06-02T10:50:42Z</time>
      </trkpt>
      <trkpt lat="45.07499" lon="6.05024">
        <ele>1178.7</ele>
        <time>2015-06-02T10:50:47Z</time>
      </trkpt>
      <trkpt lat="45.07491" lon="6.0503">
        <ele>1181.3</ele>
        <time>2015-06-02T10:50:51Z</time>
      </trkpt>
      <trkpt lat="45.07481" lon="6.05036">
        <ele>1181.5</ele>
        <time>2015-06-02T10:50:56Z</time>
      </trkpt>
      <trkpt lat="45.07474" lon="6.05045">
        <ele>1181.8</ele>
        <time>2015-06-02T10:51:00Z</time>
      </trkpt>
      <trkpt lat="45.07464" lon="6.05047">
        <ele>1182.1</ele>
        <time>2015-06-02T10:51:08Z</time>
      </trkpt>
      <trkpt lat="45.07454" lon="6.05052">
        <ele>1182.4</ele>
        <time>2015-06-02T10:51:13Z</time>
      </trkpt>
      <trkpt lat="45.07446" lon="6.05059">
        <ele>1182.6</ele>
        <time>2015-06-02T10:51:19Z</time>
      </trkpt>
      <trkpt lat="45.07439" lon="6.05069">
        <ele>1182.9</ele>
        <time>2015-06-02T10:51:25Z</time>
      </trkpt>
      <trkpt lat="45.07432" lon="6.0508">
        <ele>1183.2</ele>
        <time>2015-06-02T10:51:32Z</time>
      </trkpt>
      <trkpt lat="45.07427" lon="6.05092">
        <ele>1186.8</ele>
        <time>2015-06-02T10:51:37Z</time>
      </trkpt>
      <trkpt lat="45.07423" lon="6.05104">
        <ele>1190.5</ele>
        <time>2015-06-02T10:51:41Z</time>
      </trkpt>
      <trkpt lat="45.07416" lon="6.05114">
        <ele>1197.1</ele>
        <time>2015-06-02T10:51:46Z</time>
      </trkpt>
      <trkpt lat="45.07409" lon="6.05125">
        <ele>1196.7</ele>
        <time>2015-06-02T10:51:52Z</time>
      </trkpt>
      <trkpt lat="45.074" lon="6.05131">
        <ele>1196.4</ele>
        <time>2015-06-02T10:51:59Z</time>
      </trkpt>
      <trkpt lat="45.07394" lon="6.05142">
        <ele>1196</ele>
        <time>2015-06-02T10:52:05Z</time>
      </trkpt>
      <trkpt lat="45.07388" lon="6.05154">
        <ele>1195.6</ele>
        <time>2015-06-02T10:52:11Z</time>
      </trkpt>
      <trkpt lat="45.07382" lon="6.05167">
        <ele>1195.3</ele>
        <time>2015-06-02T10:52:16Z</time>
      </trkpt>
      <trkpt lat="45.07374" lon="6.05175">
        <ele>1197.5</ele>
        <time>2015-06-02T10:52:20Z</time>
      </trkpt>
      <trkpt lat="45.07365" lon="6.05182">
        <ele>1199.6</ele>
        <time>2015-06-02T10:52:25Z</time>
      </trkpt>
      <trkpt lat="45.07359" lon="6.05191">
        <ele>1201.8</ele>
        <time>2015-06-02T10:52:29Z</time>
      </trkpt>
      <trkpt lat="45.0735" lon="6.05201">
        <ele>1200.6</ele>
        <time>2015-06-02T10:52:33Z</time>
      </trkpt>
      <trkpt lat="45.07343" lon="6.0521">
        <ele>1196.9</ele>
        <time>2015-06-02T10:52:37Z</time>
      </trkpt>
      <trkpt lat="45.07335" lon="6.0522">
        <ele>1193.2</ele>
        <time>2015-06-02T10:52:41Z</time>
      </trkpt>
      <trkpt lat="45.07329" lon="6.05232">
        <ele>1193.2</ele>
        <time>2015-06-02T10:52:46Z</time>
      </trkpt>
      <trkpt lat="45.07339" lon="6.05235">
        <ele>1193.2</ele>
        <time>2015-06-02T10:52:51Z</time>
      </trkpt>
      <trkpt lat="45.07347" lon="6.05221">
        <ele>1196.9</ele>
        <time>2015-06-02T10:52:54Z</time>
      </trkpt>
      <trkpt lat="45.07353" lon="6.05209">
        <ele>1200.6</ele>
        <time>2015-06-02T10:52:57Z</time>
      </trkpt>
      <trkpt lat="45.07359" lon="6.05198">
        <ele>1204.4</ele>
        <time>2015-06-02T10:53:00Z</time>
      </trkpt>
      <trkpt lat="45.07366" lon="6.05186">
        <ele>1205.5</ele>
        <time>2015-06-02T10:53:04Z</time>
      </trkpt>
      <trkpt lat="45.07375" lon="6.05177">
        <ele>1203.4</ele>
        <time>2015-06-02T10:53:09Z</time>
      </trkpt>
      <trkpt lat="45.07383" lon="6.05169">
        <ele>1201.2</ele>
        <time>2015-06-02T10:53:14Z</time>
      </trkpt>
      <trkpt lat="45.07391" lon="6.05162">
        <ele>1199</ele>
        <time>2015-06-02T10:53:19Z</time>
      </trkpt>
      <trkpt lat="45.074" lon="6.05152">
        <ele>1199.4</ele>
        <time>2015-06-02T10:53:24Z</time>
      </trkpt>
      <trkpt lat="45.07405" lon="6.05142">
        <ele>1199.7</ele>
        <time>2015-06-02T10:53:28Z</time>
      </trkpt>
      <trkpt lat="45.07412" lon="6.05133">
        <ele>1200.1</ele>
        <time>2015-06-02T10:53:33Z</time>
      </trkpt>
      <trkpt lat="45.07421" lon="6.05126">
        <ele>1203.5</ele>
        <time>2015-06-02T10:53:39Z</time>
      </trkpt>
      <trkpt lat="45.0743" lon="6.05119">
        <ele>1203.1</ele>
        <time>2015-06-02T10:53:45Z</time>
      </trkpt>
      <trkpt lat="45.07439" lon="6.05112">
        <ele>1202.7</ele>
        <time>2015-06-02T10:53:51Z</time>
      </trkpt>
      <trkpt lat="45.07447" lon="6.05103">
        <ele>1202.4</ele>
        <time>2015-06-02T10:53:56Z</time>
      </trkpt>
      <trkpt lat="45.07456" lon="6.05093">
        <ele>1202</ele>
        <time>2015-06-02T10:54:01Z</time>
      </trkpt>
      <trkpt lat="45.07465" lon="6.0509">
        <ele>1205</ele>
        <time>2015-06-02T10:54:06Z</time>
      </trkpt>
      <trkpt lat="45.07475" lon="6.05088">
        <ele>1208</ele>
        <time>2015-06-02T10:54:13Z</time>
      </trkpt>
      <trkpt lat="45.07486" lon="6.05084">
        <ele>1211</ele>
        <time>2015-06-02T10:54:19Z</time>
      </trkpt>
      <trkpt lat="45.07496" lon="6.05081">
        <ele>1214</ele>
        <time>2015-06-02T10:54:23Z</time>
      </trkpt>
      <trkpt lat="45.07504" lon="6.05074">
        <ele>1219.9</ele>
        <time>2015-06-02T10:54:29Z</time>
      </trkpt>
      <trkpt lat="45.07514" lon="6.05071">
        <ele>1223.3</ele>
        <time>2015-06-02T10:54:34Z</time>
      </trkpt>
      <trkpt lat="45.07524" lon="6.05068">
        <ele>1223.6</ele>
        <time>2015-06-02T10:54:39Z</time>
      </trkpt>
      <trkpt lat="45.07533" lon="6.05065">
        <ele>1224</ele>
        <time>2015-06-02T10:54:44Z</time>
      </trkpt>
      <trkpt lat="45.07543" lon="6.0506">
        <ele>1224.4</ele>
        <time>2015-06-02T10:54:50Z</time>
      </trkpt>
      <trkpt lat="45.07551" lon="6.05055">
        <ele>1224.7</ele>
        <time>2015-06-02T10:54:54Z</time>
      </trkpt>
      <trkpt lat="45.07559" lon="6.05046">
        <ele>1225.1</ele>
        <time>2015-06-02T10:55:00Z</time>
      </trkpt>
      <trkpt lat="45.07565" lon="6.05035">
        <ele>1225.5</ele>
        <time>2015-06-02T10:55:06Z</time>
      </trkpt>
      <trkpt lat="45.07575" lon="6.05029">
        <ele>1225.8</ele>
        <time>2015-06-02T10:55:11Z</time>
      </trkpt>
      <trkpt lat="45.07582" lon="6.0502">
        <ele>1224.4</ele>
        <time>2015-06-02T10:55:16Z</time>
      </trkpt>
      <trkpt lat="45.07588" lon="6.0501">
        <ele>1222.9</ele>
        <time>2015-06-02T10:55:21Z</time>
      </trkpt>
      <trkpt lat="45.07592" lon="6.04996">
        <ele>1218.5</ele>
        <time>2015-06-02T10:55:27Z</time>
      </trkpt>
      <trkpt lat="45.07588" lon="6.04983">
        <ele>1216.7</ele>
        <time>2015-06-02T10:55:31Z</time>
      </trkpt>
      <trkpt lat="45.07593" lon="6.04972">
        <ele>1214.9</ele>
        <time>2015-06-02T10:55:36Z</time>
      </trkpt>
      <trkpt lat="45.076" lon="6.04963">
        <ele>1217.6</ele>
        <time>2015-06-02T10:55:41Z</time>
      </trkpt>
      <trkpt lat="45.07605" lon="6.04951">
        <ele>1220.4</ele>
        <time>2015-06-02T10:55:46Z</time>
      </trkpt>
      <trkpt lat="45.0761" lon="6.0494">
        <ele>1223.2</ele>
        <time>2015-06-02T10:55:50Z</time>
      </trkpt>
      <trkpt lat="45.07616" lon="6.04929">
        <ele>1226</ele>
        <time>2015-06-02T10:55:54Z</time>
      </trkpt>
      <trkpt lat="45.07626" lon="6.0492">
        <ele>1228.8</ele>
        <time>2015-06-02T10:55:59Z</time>
      </trkpt>
      <trkpt lat="45.07634" lon="6.0491">
        <ele>1231.6</ele>
        <time>2015-06-02T10:56:04Z</time>
      </trkpt>
      <trkpt lat="45.07641" lon="6.04899">
        <ele>1236.3</ele>
        <time>2015-06-02T10:56:09Z</time>
      </trkpt>
      <trkpt lat="45.07642" lon="6.04886">
        <ele>1240.9</ele>
        <time>2015-06-02T10:56:13Z</time>
      </trkpt>
      <trkpt lat="45.07643" lon="6.04872">
        <ele>1245.4</ele>
        <time>2015-06-02T10:56:17Z</time>
      </trkpt>
      <trkpt lat="45.07642" lon="6.04859">
        <ele>1249.8</ele>
        <time>2015-06-02T10:56:21Z</time>
      </trkpt>
      <trkpt lat="45.0764" lon="6.04845">
        <ele>1254.3</ele>
        <time>2015-06-02T10:56:27Z</time>
      </trkpt>
      <trkpt lat="45.07637" lon="6.0483">
        <ele>1254.2</ele>
        <time>2015-06-02T10:56:33Z</time>
      </trkpt>
      <trkpt lat="45.07634" lon="6.04817">
        <ele>1254.1</ele>
        <time>2015-06-02T10:56:40Z</time>
      </trkpt>
      <trkpt lat="45.07634" lon="6.04802">
        <ele>1253.9</ele>
        <time>2015-06-02T10:56:45Z</time>
      </trkpt>
      <trkpt lat="45.07637" lon="6.04789">
        <ele>1253.7</ele>
        <time>2015-06-02T10:56:51Z</time>
      </trkpt>
      <trkpt lat="45.07641" lon="6.04776">
        <ele>1253.5</ele>
        <time>2015-06-02T10:56:57Z</time>
      </trkpt>
      <trkpt lat="45.07647" lon="6.04765">
        <ele>1253.4</ele>
        <time>2015-06-02T10:57:03Z</time>
      </trkpt>
      <trkpt lat="45.07649" lon="6.04751">
        <ele>1253.2</ele>
        <time>2015-06-02T10:57:09Z</time>
      </trkpt>
      <trkpt lat="45.07654" lon="6.04738">
        <ele>1253</ele>
        <time>2015-06-02T10:57:15Z</time>
      </trkpt>
      <trkpt lat="45.07663" lon="6.04729">
        <ele>1253</ele>
        <time>2015-06-02T10:57:20Z</time>
      </trkpt>
      <trkpt lat="45.07668" lon="6.0474">
        <ele>1253.2</ele>
        <time>2015-06-02T10:57:24Z</time>
      </trkpt>
      <trkpt lat="45.07669" lon="6.04757">
        <ele>1253.4</ele>
        <time>2015-06-02T10:57:28Z</time>
      </trkpt>
      <trkpt lat="45.07667" lon="6.04773">
        <ele>1253.5</ele>
        <time>2015-06-02T10:57:32Z</time>
      </trkpt>
      <trkpt lat="45.07666" lon="6.04787">
        <ele>1253.7</ele>
        <time>2015-06-02T10:57:38Z</time>
      </trkpt>
      <trkpt lat="45.07665" lon="6.048">
        <ele>1253.9</ele>
        <time>2015-06-02T10:57:43Z</time>
      </trkpt>
      <trkpt lat="45.07662" lon="6.04814">
        <ele>1254.1</ele>
        <time>2015-06-02T10:57:48Z</time>
      </trkpt>
      <trkpt lat="45.07662" lon="6.04827">
        <ele>1254.2</ele>
        <time>2015-06-02T10:57:53Z</time>
      </trkpt>
      <trkpt lat="45.07664" lon="6.04841">
        <ele>1254.3</ele>
        <time>2015-06-02T10:57:58Z</time>
      </trkpt>
      <trkpt lat="45.07667" lon="6.04855">
        <ele>1254.4</ele>
        <time>2015-06-02T10:58:03Z</time>
      </trkpt>
      <trkpt lat="45.07671" lon="6.04867">
        <ele>1254.5</ele>
        <time>2015-06-02T10:58:08Z</time>
      </trkpt>
      <trkpt lat="45.07674" lon="6.04882">
        <ele>1254.5</ele>
        <time>2015-06-02T10:58:14Z</time>
      </trkpt>
      <trkpt lat="45.07676" lon="6.04895">
        <ele>1254.5</ele>
        <time>2015-06-02T10:58:19Z</time>
      </trkpt>
      <trkpt lat="45.07676" lon="6.0491">
        <ele>1255.7</ele>
        <time>2015-06-02T10:58:24Z</time>
      </trkpt>
      <trkpt lat="45.07677" lon="6.04924">
        <ele>1257</ele>
        <time>2015-06-02T10:58:30Z</time>
      </trkpt>
      <trkpt lat="45.07677" lon="6.04938">
        <ele>1258.3</ele>
        <time>2015-06-02T10:58:37Z</time>
      </trkpt>
      <trkpt lat="45.0768" lon="6.0495">
        <ele>1259.5</ele>
        <time>2015-06-02T10:58:45Z</time>
      </trkpt>
      <trkpt lat="45.07681" lon="6.04965">
        <ele>1260.8</ele>
        <time>2015-06-02T10:58:53Z</time>
      </trkpt>
      <trkpt lat="45.0768" lon="6.0498">
        <ele>1262.2</ele>
        <time>2015-06-02T10:58:57Z</time>
      </trkpt>
      <trkpt lat="45.07678" lon="6.04993">
        <ele>1265.4</ele>
        <time>2015-06-02T10:59:02Z</time>
      </trkpt>
      <trkpt lat="45.07675" lon="6.05006">
        <ele>1268.5</ele>
        <time>2015-06-02T10:59:08Z</time>
      </trkpt>
      <trkpt lat="45.07673" lon="6.05019">
        <ele>1271.7</ele>
        <time>2015-06-02T10:59:12Z</time>
      </trkpt>
      <trkpt lat="45.07671" lon="6.05032">
        <ele>1274.9</ele>
        <time>2015-06-02T10:59:18Z</time>
      </trkpt>
      <trkpt lat="45.07668" lon="6.05045">
        <ele>1278.1</ele>
        <time>2015-06-02T10:59:25Z</time>
      </trkpt>
      <trkpt lat="45.07666" lon="6.05058">
        <ele>1279.9</ele>
        <time>2015-06-02T10:59:31Z</time>
      </trkpt>
      <trkpt lat="45.07662" lon="6.05071">
        <ele>1281.7</ele>
        <time>2015-06-02T10:59:37Z</time>
      </trkpt>
      <trkpt lat="45.07659" lon="6.05084">
        <ele>1283.1</ele>
        <time>2015-06-02T10:59:41Z</time>
      </trkpt>
      <trkpt lat="45.07652" lon="6.05097">
        <ele>1284.5</ele>
        <time>2015-06-02T10:59:46Z</time>
      </trkpt>
      <trkpt lat="45.07647" lon="6.05108">
        <ele>1285.8</ele>
        <time>2015-06-02T10:59:50Z</time>
      </trkpt>
      <trkpt lat="45.07641" lon="6.05118">
        <ele>1287.2</ele>
        <time>2015-06-02T10:59:54Z</time>
      </trkpt>
      <trkpt lat="45.07633" lon="6.05127">
        <ele>1286.7</ele>
        <time>2015-06-02T10:59:59Z</time>
      </trkpt>
      <trkpt lat="45.07627" lon="6.05136">
        <ele>1286.3</ele>
        <time>2015-06-02T11:00:03Z</time>
      </trkpt>
      <trkpt lat="45.07621" lon="6.05147">
        <ele>1285.8</ele>
        <time>2015-06-02T11:00:09Z</time>
      </trkpt>
      <trkpt lat="45.07618" lon="6.05161">
        <ele>1285.4</ele>
        <time>2015-06-02T11:00:16Z</time>
      </trkpt>
      <trkpt lat="45.07609" lon="6.05169">
        <ele>1284.9</ele>
        <time>2015-06-02T11:00:20Z</time>
      </trkpt>
      <trkpt lat="45.07599" lon="6.05177">
        <ele>1284.5</ele>
        <time>2015-06-02T11:00:25Z</time>
      </trkpt>
      <trkpt lat="45.0759" lon="6.05181">
        <ele>1281.8</ele>
        <time>2015-06-02T11:00:30Z</time>
      </trkpt>
      <trkpt lat="45.07581" lon="6.05185">
        <ele>1279.6</ele>
        <time>2015-06-02T11:00:35Z</time>
      </trkpt>
      <trkpt lat="45.07572" lon="6.05189">
        <ele>1277.5</ele>
        <time>2015-06-02T11:00:43Z</time>
      </trkpt>
      <trkpt lat="45.07563" lon="6.05194">
        <ele>1279.8</ele>
        <time>2015-06-02T11:00:48Z</time>
      </trkpt>
      <trkpt lat="45.07553" lon="6.05201">
        <ele>1282.2</ele>
        <time>2015-06-02T11:00:54Z</time>
      </trkpt>
      <trkpt lat="45.07544" lon="6.05205">
        <ele>1284.5</ele>
        <time>2015-06-02T11:01:00Z</time>
      </trkpt>
      <trkpt lat="45.07535" lon="6.05209">
        <ele>1286.9</ele>
        <time>2015-06-02T11:01:07Z</time>
      </trkpt>
      <trkpt lat="45.07526" lon="6.05215">
        <ele>1289.3</ele>
        <time>2015-06-02T11:01:13Z</time>
      </trkpt>
      <trkpt lat="45.07516" lon="6.0522">
        <ele>1291.6</ele>
        <time>2015-06-02T11:01:18Z</time>
      </trkpt>
      <trkpt lat="45.07508" lon="6.05223">
        <ele>1294</ele>
        <time>2015-06-02T11:01:24Z</time>
      </trkpt>
      <trkpt lat="45.07498" lon="6.05224">
        <ele>1296.4</ele>
        <time>2015-06-02T11:01:30Z</time>
      </trkpt>
      <trkpt lat="45.07487" lon="6.05226">
        <ele>1300.9</ele>
        <time>2015-06-02T11:01:37Z</time>
      </trkpt>
      <trkpt lat="45.07479" lon="6.05234">
        <ele>1305.5</ele>
        <time>2015-06-02T11:01:44Z</time>
      </trkpt>
      <trkpt lat="45.0748" lon="6.05247">
        <ele>1310</ele>
        <time>2015-06-02T11:01:51Z</time>
      </trkpt>
      <trkpt lat="45.07488" lon="6.05256">
        <ele>1310</ele>
        <time>2015-06-02T11:01:55Z</time>
      </trkpt>
      <trkpt lat="45.07497" lon="6.05253">
        <ele>1310</ele>
        <time>2015-06-02T11:02:00Z</time>
      </trkpt>
      <trkpt lat="45.07506" lon="6.05244">
        <ele>1307.6</ele>
        <time>2015-06-02T11:02:07Z</time>
      </trkpt>
      <trkpt lat="45.07513" lon="6.05234">
        <ele>1305.3</ele>
        <time>2015-06-02T11:02:13Z</time>
      </trkpt>
      <trkpt lat="45.07521" lon="6.05226">
        <ele>1302.9</ele>
        <time>2015-06-02T11:02:19Z</time>
      </trkpt>
      <trkpt lat="45.07531" lon="6.05222">
        <ele>1300.5</ele>
        <time>2015-06-02T11:02:25Z</time>
      </trkpt>
      <trkpt lat="45.0754" lon="6.05218">
        <ele>1298.2</ele>
        <time>2015-06-02T11:02:30Z</time>
      </trkpt>
      <trkpt lat="45.07549" lon="6.05214">
        <ele>1295.8</ele>
        <time>2015-06-02T11:02:36Z</time>
      </trkpt>
      <trkpt lat="45.07559" lon="6.05212">
        <ele>1293.5</ele>
        <time>2015-06-02T11:02:41Z</time>
      </trkpt>
      <trkpt lat="45.07568" lon="6.05207">
        <ele>1291.1</ele>
        <time>2015-06-02T11:02:46Z</time>
      </trkpt>
      <trkpt lat="45.07578" lon="6.05203">
        <ele>1288.7</ele>
        <time>2015-06-02T11:02:52Z</time>
      </trkpt>
      <trkpt lat="45.07589" lon="6.052">
        <ele>1289.1</ele>
        <time>2015-06-02T11:02:58Z</time>
      </trkpt>
      <trkpt lat="45.07598" lon="6.05197">
        <ele>1289.5</ele>
        <time>2015-06-02T11:03:03Z</time>
      </trkpt>
      <trkpt lat="45.07608" lon="6.05194">
        <ele>1292.2</ele>
        <time>2015-06-02T11:03:10Z</time>
      </trkpt>
      <trkpt lat="45.07618" lon="6.05193">
        <ele>1294.9</ele>
        <time>2015-06-02T11:03:15Z</time>
      </trkpt>
      <trkpt lat="45.07628" lon="6.05191">
        <ele>1297.6</ele>
        <time>2015-06-02T11:03:20Z</time>
      </trkpt>
      <trkpt lat="45.07638" lon="6.05188">
        <ele>1300.4</ele>
        <time>2015-06-02T11:03:26Z</time>
      </trkpt>
      <trkpt lat="45.07648" lon="6.05184">
        <ele>1303.1</ele>
        <time>2015-06-02T11:03:32Z</time>
      </trkpt>
      <trkpt lat="45.07658" lon="6.0518">
        <ele>1305.8</ele>
        <time>2015-06-02T11:03:38Z</time>
      </trkpt>
      <trkpt lat="45.07667" lon="6.05176">
        <ele>1306.3</ele>
        <time>2015-06-02T11:03:43Z</time>
      </trkpt>
      <trkpt lat="45.07675" lon="6.05168">
        <ele>1306.7</ele>
        <time>2015-06-02T11:03:50Z</time>
      </trkpt>
      <trkpt lat="45.07684" lon="6.0516">
        <ele>1311.5</ele>
        <time>2015-06-02T11:03:57Z</time>
      </trkpt>
      <trkpt lat="45.07692" lon="6.05153">
        <ele>1313.6</ele>
        <time>2015-06-02T11:04:03Z</time>
      </trkpt>
      <trkpt lat="45.07699" lon="6.05143">
        <ele>1315.7</ele>
        <time>2015-06-02T11:04:09Z</time>
      </trkpt>
      <trkpt lat="45.07706" lon="6.05133">
        <ele>1317.8</ele>
        <time>2015-06-02T11:04:15Z</time>
      </trkpt>
      <trkpt lat="45.07712" lon="6.05122">
        <ele>1319.9</ele>
        <time>2015-06-02T11:04:21Z</time>
      </trkpt>
      <trkpt lat="45.07716" lon="6.0511">
        <ele>1322</ele>
        <time>2015-06-02T11:04:28Z</time>
      </trkpt>
      <trkpt lat="45.07722" lon="6.05097">
        <ele>1322.5</ele>
        <time>2015-06-02T11:04:33Z</time>
      </trkpt>
      <trkpt lat="45.07728" lon="6.05086">
        <ele>1322.9</ele>
        <time>2015-06-02T11:04:38Z</time>
      </trkpt>
      <trkpt lat="45.07734" lon="6.05075">
        <ele>1323.4</ele>
        <time>2015-06-02T11:04:43Z</time>
      </trkpt>
      <trkpt lat="45.07743" lon="6.05068">
        <ele>1326.1</ele>
        <time>2015-06-02T11:04:48Z</time>
      </trkpt>
      <trkpt lat="45.07749" lon="6.05059">
        <ele>1328.8</ele>
        <time>2015-06-02T11:04:54Z</time>
      </trkpt>
      <trkpt lat="45.07756" lon="6.05049">
        <ele>1327.2</ele>
        <time>2015-06-02T11:05:00Z</time>
      </trkpt>
      <trkpt lat="45.07763" lon="6.05039">
        <ele>1325.5</ele>
        <time>2015-06-02T11:05:06Z</time>
      </trkpt>
      <trkpt lat="45.0777" lon="6.05029">
        <ele>1327.4</ele>
        <time>2015-06-02T11:05:13Z</time>
      </trkpt>
      <trkpt lat="45.07775" lon="6.05016">
        <ele>1329.2</ele>
        <time>2015-06-02T11:05:21Z</time>
      </trkpt>
      <trkpt lat="45.07781" lon="6.05004">
        <ele>1331</ele>
        <time>2015-06-02T11:05:28Z</time>
      </trkpt>
      <trkpt lat="45.07784" lon="6.04991">
        <ele>1332.8</ele>
        <time>2015-06-02T11:05:34Z</time>
      </trkpt>
      <trkpt lat="45.0779" lon="6.0498">
        <ele>1336.3</ele>
        <time>2015-06-02T11:05:41Z</time>
      </trkpt>
      <trkpt lat="45.07794" lon="6.04968">
        <ele>1339.7</ele>
        <time>2015-06-02T11:05:46Z</time>
      </trkpt>
      <trkpt lat="45.07799" lon="6.04956">
        <ele>1343.2</ele>
        <time>2015-06-02T11:05:51Z</time>
      </trkpt>
      <trkpt lat="45.07803" lon="6.04942">
        <ele>1347.8</ele>
        <time>2015-06-02T11:05:57Z</time>
      </trkpt>
      <trkpt lat="45.07803" lon="6.04929">
        <ele>1352.5</ele>
        <time>2015-06-02T11:06:02Z</time>
      </trkpt>
      <trkpt lat="45.078" lon="6.04916">
        <ele>1357.1</ele>
        <time>2015-06-02T11:06:09Z</time>
      </trkpt>
      <trkpt lat="45.07797" lon="6.04903">
        <ele>1361.7</ele>
        <time>2015-06-02T11:06:15Z</time>
      </trkpt>
      <trkpt lat="45.07797" lon="6.04889">
        <ele>1362.9</ele>
        <time>2015-06-02T11:06:21Z</time>
      </trkpt>
      <trkpt lat="45.07797" lon="6.04875">
        <ele>1359.1</ele>
        <time>2015-06-02T11:06:27Z</time>
      </trkpt>
      <trkpt lat="45.07798" lon="6.04862">
        <ele>1355.3</ele>
        <time>2015-06-02T11:06:32Z</time>
      </trkpt>
      <trkpt lat="45.07799" lon="6.04849">
        <ele>1351.5</ele>
        <time>2015-06-02T11:06:37Z</time>
      </trkpt>
      <trkpt lat="45.07798" lon="6.04836">
        <ele>1347.6</ele>
        <time>2015-06-02T11:06:42Z</time>
      </trkpt>
      <trkpt lat="45.07797" lon="6.04822">
        <ele>1343.8</ele>
        <time>2015-06-02T11:06:48Z</time>
      </trkpt>
      <trkpt lat="45.07793" lon="6.04808">
        <ele>1345.5</ele>
        <time>2015-06-02T11:06:55Z</time>
      </trkpt>
      <trkpt lat="45.07784" lon="6.04803">
        <ele>1346.1</ele>
        <time>2015-06-02T11:07:05Z</time>
      </trkpt>
      <trkpt lat="45.07784" lon="6.04789">
        <ele>1346.1</ele>
        <time>2015-06-02T11:07:11Z</time>
      </trkpt>
      <trkpt lat="45.07783" lon="6.04776">
        <ele>1346.1</ele>
        <time>2015-06-02T11:27:07Z</time>
      </trkpt>
      <trkpt lat="45.07786" lon="6.04789">
        <ele>1346.1</ele>
        <time>2015-06-02T11:35:41Z</time>
      </trkpt>
      <trkpt lat="45.07798" lon="6.04789">
        <ele>1346.1</ele>
        <time>2015-06-02T11:36:39Z</time>
      </trkpt>
      <trkpt lat="45.07807" lon="6.04797">
        <ele>1351.1</ele>
        <time>2015-06-02T11:36:42Z</time>
      </trkpt>
      <trkpt lat="45.0781" lon="6.04812">
        <ele>1356.1</ele>
        <time>2015-06-02T11:36:45Z</time>
      </trkpt>
      <trkpt lat="45.07814" lon="6.04826">
        <ele>1359.9</ele>
        <time>2015-06-02T11:36:48Z</time>
      </trkpt>
      <trkpt lat="45.07818" lon="6.04839">
        <ele>1363.7</ele>
        <time>2015-06-02T11:36:51Z</time>
      </trkpt>
      <trkpt lat="45.07824" lon="6.04851">
        <ele>1367.5</ele>
        <time>2015-06-02T11:36:55Z</time>
      </trkpt>
      <trkpt lat="45.07828" lon="6.04863">
        <ele>1365.8</ele>
        <time>2015-06-02T11:36:59Z</time>
      </trkpt>
      <trkpt lat="45.07833" lon="6.04876">
        <ele>1364.1</ele>
        <time>2015-06-02T11:37:03Z</time>
      </trkpt>
      <trkpt lat="45.07837" lon="6.04888">
        <ele>1362.9</ele>
        <time>2015-06-02T11:37:07Z</time>
      </trkpt>
      <trkpt lat="45.07845" lon="6.04898">
        <ele>1361.7</ele>
        <time>2015-06-02T11:37:12Z</time>
      </trkpt>
      <trkpt lat="45.07853" lon="6.04907">
        <ele>1361.1</ele>
        <time>2015-06-02T11:37:16Z</time>
      </trkpt>
      <trkpt lat="45.07859" lon="6.04917">
        <ele>1360.5</ele>
        <time>2015-06-02T11:37:20Z</time>
      </trkpt>
      <trkpt lat="45.07862" lon="6.04929">
        <ele>1359.8</ele>
        <time>2015-06-02T11:37:24Z</time>
      </trkpt>
      <trkpt lat="45.07863" lon="6.04944">
        <ele>1359.2</ele>
        <time>2015-06-02T11:37:29Z</time>
      </trkpt>
      <trkpt lat="45.07866" lon="6.04956">
        <ele>1359.7</ele>
        <time>2015-06-02T11:37:35Z</time>
      </trkpt>
      <trkpt lat="45.07864" lon="6.04971">
        <ele>1360.3</ele>
        <time>2015-06-02T11:37:40Z</time>
      </trkpt>
      <trkpt lat="45.07864" lon="6.04985">
        <ele>1360.8</ele>
        <time>2015-06-02T11:37:45Z</time>
      </trkpt>
      <trkpt lat="45.07863" lon="6.04999">
        <ele>1362.7</ele>
        <time>2015-06-02T11:37:50Z</time>
      </trkpt>
      <trkpt lat="45.0786" lon="6.05011">
        <ele>1364.6</ele>
        <time>2015-06-02T11:37:55Z</time>
      </trkpt>
      <trkpt lat="45.07854" lon="6.05021">
        <ele>1366.5</ele>
        <time>2015-06-02T11:38:00Z</time>
      </trkpt>
      <trkpt lat="45.0785" lon="6.05033">
        <ele>1368.5</ele>
        <time>2015-06-02T11:38:04Z</time>
      </trkpt>
      <trkpt lat="45.07845" lon="6.05045">
        <ele>1369.8</ele>
        <time>2015-06-02T11:38:08Z</time>
      </trkpt>
      <trkpt lat="45.07839" lon="6.05058">
        <ele>1371.2</ele>
        <time>2015-06-02T11:38:12Z</time>
      </trkpt>
      <trkpt lat="45.07834" lon="6.0507">
        <ele>1372.5</ele>
        <time>2015-06-02T11:38:16Z</time>
      </trkpt>
      <trkpt lat="45.07828" lon="6.05084">
        <ele>1375.9</ele>
        <time>2015-06-02T11:38:21Z</time>
      </trkpt>
      <trkpt lat="45.07821" lon="6.05096">
        <ele>1379.3</ele>
        <time>2015-06-02T11:38:25Z</time>
      </trkpt>
      <trkpt lat="45.07816" lon="6.05109">
        <ele>1378.8</ele>
        <time>2015-06-02T11:38:29Z</time>
      </trkpt>
      <trkpt lat="45.0781" lon="6.0512">
        <ele>1378.4</ele>
        <time>2015-06-02T11:38:33Z</time>
      </trkpt>
      <trkpt lat="45.07804" lon="6.05132">
        <ele>1376.5</ele>
        <time>2015-06-02T11:38:38Z</time>
      </trkpt>
      <trkpt lat="45.07799" lon="6.05146">
        <ele>1374.7</ele>
        <time>2015-06-02T11:38:43Z</time>
      </trkpt>
      <trkpt lat="45.07795" lon="6.05158">
        <ele>1375.2</ele>
        <time>2015-06-02T11:38:48Z</time>
      </trkpt>
      <trkpt lat="45.0779" lon="6.05169">
        <ele>1375.6</ele>
        <time>2015-06-02T11:38:52Z</time>
      </trkpt>
      <trkpt lat="45.07785" lon="6.05183">
        <ele>1376.1</ele>
        <time>2015-06-02T11:38:57Z</time>
      </trkpt>
      <trkpt lat="45.07781" lon="6.05197">
        <ele>1376.5</ele>
        <time>2015-06-02T11:39:01Z</time>
      </trkpt>
      <trkpt lat="45.07778" lon="6.05209">
        <ele>1377</ele>
        <time>2015-06-02T11:39:05Z</time>
      </trkpt>
      <trkpt lat="45.07773" lon="6.05221">
        <ele>1375.5</ele>
        <time>2015-06-02T11:39:10Z</time>
      </trkpt>
      <trkpt lat="45.07769" lon="6.05234">
        <ele>1373.9</ele>
        <time>2015-06-02T11:39:15Z</time>
      </trkpt>
      <trkpt lat="45.07762" lon="6.05247">
        <ele>1377.1</ele>
        <time>2015-06-02T11:39:20Z</time>
      </trkpt>
      <trkpt lat="45.07756" lon="6.05259">
        <ele>1380.3</ele>
        <time>2015-06-02T11:39:25Z</time>
      </trkpt>
      <trkpt lat="45.07749" lon="6.05272">
        <ele>1380.8</ele>
        <time>2015-06-02T11:39:31Z</time>
      </trkpt>
      <trkpt lat="45.07743" lon="6.05281">
        <ele>1381.4</ele>
        <time>2015-06-02T11:39:35Z</time>
      </trkpt>
      <trkpt lat="45.07735" lon="6.05291">
        <ele>1379.6</ele>
        <time>2015-06-02T11:39:40Z</time>
      </trkpt>
      <trkpt lat="45.07726" lon="6.05301">
        <ele>1377.9</ele>
        <time>2015-06-02T11:39:45Z</time>
      </trkpt>
      <trkpt lat="45.07717" lon="6.05311">
        <ele>1378.8</ele>
        <time>2015-06-02T11:39:50Z</time>
      </trkpt>
      <trkpt lat="45.0771" lon="6.05319">
        <ele>1379.7</ele>
        <time>2015-06-02T11:39:54Z</time>
      </trkpt>
      <trkpt lat="45.07703" lon="6.0533">
        <ele>1380.6</ele>
        <time>2015-06-02T11:39:59Z</time>
      </trkpt>
      <trkpt lat="45.07703" lon="6.05343">
        <ele>1381.5</ele>
        <time>2015-06-02T11:40:03Z</time>
      </trkpt>
      <trkpt lat="45.07709" lon="6.05353">
        <ele>1382.5</ele>
        <time>2015-06-02T11:40:07Z</time>
      </trkpt>
      <trkpt lat="45.07718" lon="6.05359">
        <ele>1382.5</ele>
        <time>2015-06-02T11:40:11Z</time>
      </trkpt>
      <trkpt lat="45.07728" lon="6.05361">
        <ele>1382.5</ele>
        <time>2015-06-02T11:40:15Z</time>
      </trkpt>
      <trkpt lat="45.07738" lon="6.05362">
        <ele>1383.6</ele>
        <time>2015-06-02T11:40:19Z</time>
      </trkpt>
      <trkpt lat="45.07749" lon="6.05367">
        <ele>1384.8</ele>
        <time>2015-06-02T11:40:24Z</time>
      </trkpt>
      <trkpt lat="45.07759" lon="6.0537">
        <ele>1388.6</ele>
        <time>2015-06-02T11:40:30Z</time>
      </trkpt>
      <trkpt lat="45.07768" lon="6.05373">
        <ele>1392.5</ele>
        <time>2015-06-02T11:40:35Z</time>
      </trkpt>
      <trkpt lat="45.07777" lon="6.05379">
        <ele>1393.6</ele>
        <time>2015-06-02T11:40:40Z</time>
      </trkpt>
      <trkpt lat="45.07785" lon="6.05386">
        <ele>1394.8</ele>
        <time>2015-06-02T11:40:45Z</time>
      </trkpt>
      <trkpt lat="45.07794" lon="6.05392">
        <ele>1396</ele>
        <time>2015-06-02T11:40:51Z</time>
      </trkpt>
      <trkpt lat="45.07803" lon="6.05399">
        <ele>1397.2</ele>
        <time>2015-06-02T11:40:56Z</time>
      </trkpt>
      <trkpt lat="45.07811" lon="6.05406">
        <ele>1398.4</ele>
        <time>2015-06-02T11:41:02Z</time>
      </trkpt>
      <trkpt lat="45.0782" lon="6.05412">
        <ele>1399.5</ele>
        <time>2015-06-02T11:41:07Z</time>
      </trkpt>
      <trkpt lat="45.0783" lon="6.05416">
        <ele>1400.7</ele>
        <time>2015-06-02T11:41:11Z</time>
      </trkpt>
      <trkpt lat="45.0784" lon="6.0542">
        <ele>1405.1</ele>
        <time>2015-06-02T11:41:15Z</time>
      </trkpt>
      <trkpt lat="45.07849" lon="6.05426">
        <ele>1409.5</ele>
        <time>2015-06-02T11:41:19Z</time>
      </trkpt>
      <trkpt lat="45.07858" lon="6.05431">
        <ele>1411.2</ele>
        <time>2015-06-02T11:41:23Z</time>
      </trkpt>
      <trkpt lat="45.07867" lon="6.05437">
        <ele>1412.9</ele>
        <time>2015-06-02T11:41:28Z</time>
      </trkpt>
      <trkpt lat="45.07876" lon="6.0544">
        <ele>1412.7</ele>
        <time>2015-06-02T11:41:32Z</time>
      </trkpt>
      <trkpt lat="45.07886" lon="6.05446">
        <ele>1412.5</ele>
        <time>2015-06-02T11:41:37Z</time>
      </trkpt>
      <trkpt lat="45.07897" lon="6.0545">
        <ele>1412.4</ele>
        <time>2015-06-02T11:41:44Z</time>
      </trkpt>
      <trkpt lat="45.07905" lon="6.05455">
        <ele>1412.2</ele>
        <time>2015-06-02T11:41:49Z</time>
      </trkpt>
      <trkpt lat="45.07914" lon="6.05462">
        <ele>1415.5</ele>
        <time>2015-06-02T11:41:55Z</time>
      </trkpt>
      <trkpt lat="45.07923" lon="6.05465">
        <ele>1418.7</ele>
        <time>2015-06-02T11:42:01Z</time>
      </trkpt>
      <trkpt lat="45.07932" lon="6.05467">
        <ele>1420.1</ele>
        <time>2015-06-02T11:42:08Z</time>
      </trkpt>
      <trkpt lat="45.07942" lon="6.05469">
        <ele>1419.7</ele>
        <time>2015-06-02T11:42:14Z</time>
      </trkpt>
      <trkpt lat="45.07951" lon="6.05466">
        <ele>1419.4</ele>
        <time>2015-06-02T11:42:19Z</time>
      </trkpt>
      <trkpt lat="45.07961" lon="6.05461">
        <ele>1419</ele>
        <time>2015-06-02T11:42:25Z</time>
      </trkpt>
      <trkpt lat="45.07971" lon="6.05462">
        <ele>1418.6</ele>
        <time>2015-06-02T11:42:29Z</time>
      </trkpt>
      <trkpt lat="45.07981" lon="6.05463">
        <ele>1420.2</ele>
        <time>2015-06-02T11:42:34Z</time>
      </trkpt>
      <trkpt lat="45.0799" lon="6.05466">
        <ele>1421.7</ele>
        <time>2015-06-02T11:42:38Z</time>
      </trkpt>
      <trkpt lat="45.08" lon="6.05469">
        <ele>1424.5</ele>
        <time>2015-06-02T11:42:42Z</time>
      </trkpt>
      <trkpt lat="45.0801" lon="6.05473">
        <ele>1427.2</ele>
        <time>2015-06-02T11:42:46Z</time>
      </trkpt>
      <trkpt lat="45.08021" lon="6.05477">
        <ele>1426.5</ele>
        <time>2015-06-02T11:42:50Z</time>
      </trkpt>
      <trkpt lat="45.08031" lon="6.05479">
        <ele>1425.7</ele>
        <time>2015-06-02T11:42:54Z</time>
      </trkpt>
      <trkpt lat="45.08041" lon="6.0548">
        <ele>1426.9</ele>
        <time>2015-06-02T11:42:59Z</time>
      </trkpt>
      <trkpt lat="45.08051" lon="6.05482">
        <ele>1428.1</ele>
        <time>2015-06-02T11:43:06Z</time>
      </trkpt>
      <trkpt lat="45.0806" lon="6.05483">
        <ele>1429.3</ele>
        <time>2015-06-02T11:43:11Z</time>
      </trkpt>
      <trkpt lat="45.08073" lon="6.05485">
        <ele>1431.7</ele>
        <time>2015-06-02T11:43:15Z</time>
      </trkpt>
      <trkpt lat="45.0808" lon="6.05493">
        <ele>1434.2</ele>
        <time>2015-06-02T11:43:20Z</time>
      </trkpt>
      <trkpt lat="45.08081" lon="6.05506">
        <ele>1436.6</ele>
        <time>2015-06-02T11:43:25Z</time>
      </trkpt>
      <trkpt lat="45.08083" lon="6.05519">
        <ele>1439.1</ele>
        <time>2015-06-02T11:43:29Z</time>
      </trkpt>
      <trkpt lat="45.08083" lon="6.05535">
        <ele>1440.4</ele>
        <time>2015-06-02T11:43:34Z</time>
      </trkpt>
      <trkpt lat="45.08078" lon="6.05547">
        <ele>1439.6</ele>
        <time>2015-06-02T11:43:38Z</time>
      </trkpt>
      <trkpt lat="45.08075" lon="6.0556">
        <ele>1438.9</ele>
        <time>2015-06-02T11:43:43Z</time>
      </trkpt>
      <trkpt lat="45.08067" lon="6.05569">
        <ele>1438.2</ele>
        <time>2015-06-02T11:43:50Z</time>
      </trkpt>
      <trkpt lat="45.08059" lon="6.05578">
        <ele>1437.5</ele>
        <time>2015-06-02T11:43:56Z</time>
      </trkpt>
      <trkpt lat="45.0805" lon="6.05584">
        <ele>1436.7</ele>
        <time>2015-06-02T11:44:02Z</time>
      </trkpt>
      <trkpt lat="45.08042" lon="6.05592">
        <ele>1436.5</ele>
        <time>2015-06-02T11:44:07Z</time>
      </trkpt>
      <trkpt lat="45.08032" lon="6.05593">
        <ele>1435.1</ele>
        <time>2015-06-02T11:44:12Z</time>
      </trkpt>
      <trkpt lat="45.08023" lon="6.05599">
        <ele>1433.6</ele>
        <time>2015-06-02T11:44:18Z</time>
      </trkpt>
      <trkpt lat="45.08018" lon="6.05611">
        <ele>1432.2</ele>
        <time>2015-06-02T11:44:23Z</time>
      </trkpt>
      <trkpt lat="45.08013" lon="6.05624">
        <ele>1430.7</ele>
        <time>2015-06-02T11:44:27Z</time>
      </trkpt>
      <trkpt lat="45.08011" lon="6.05639">
        <ele>1429</ele>
        <time>2015-06-02T11:44:31Z</time>
      </trkpt>
      <trkpt lat="45.08008" lon="6.05654">
        <ele>1429.3</ele>
        <time>2015-06-02T11:44:36Z</time>
      </trkpt>
      <trkpt lat="45.08005" lon="6.05667">
        <ele>1429.5</ele>
        <time>2015-06-02T11:44:40Z</time>
      </trkpt>
      <trkpt lat="45.08005" lon="6.05681">
        <ele>1429.8</ele>
        <time>2015-06-02T11:44:44Z</time>
      </trkpt>
      <trkpt lat="45.08007" lon="6.05696">
        <ele>1430.1</ele>
        <time>2015-06-02T11:44:49Z</time>
      </trkpt>
      <trkpt lat="45.08013" lon="6.0571">
        <ele>1430.4</ele>
        <time>2015-06-02T11:44:53Z</time>
      </trkpt>
      <trkpt lat="45.08018" lon="6.05723">
        <ele>1433.5</ele>
        <time>2015-06-02T11:44:57Z</time>
      </trkpt>
      <trkpt lat="45.08025" lon="6.05735">
        <ele>1436.5</ele>
        <time>2015-06-02T11:45:01Z</time>
      </trkpt>
      <trkpt lat="45.08032" lon="6.05747">
        <ele>1438.6</ele>
        <time>2015-06-02T11:45:05Z</time>
      </trkpt>
      <trkpt lat="45.08038" lon="6.05758">
        <ele>1440.7</ele>
        <time>2015-06-02T11:45:09Z</time>
      </trkpt>
      <trkpt lat="45.08044" lon="6.05771">
        <ele>1442.8</ele>
        <time>2015-06-02T11:45:13Z</time>
      </trkpt>
      <trkpt lat="45.08049" lon="6.05784">
        <ele>1445.2</ele>
        <time>2015-06-02T11:45:17Z</time>
      </trkpt>
      <trkpt lat="45.08054" lon="6.05796">
        <ele>1447.5</ele>
        <time>2015-06-02T11:45:21Z</time>
      </trkpt>
      <trkpt lat="45.08057" lon="6.0581">
        <ele>1449.9</ele>
        <time>2015-06-02T11:45:26Z</time>
      </trkpt>
      <trkpt lat="45.08061" lon="6.05822">
        <ele>1452.3</ele>
        <time>2015-06-02T11:45:33Z</time>
      </trkpt>
      <trkpt lat="45.08067" lon="6.05833">
        <ele>1454.6</ele>
        <time>2015-06-02T11:45:39Z</time>
      </trkpt>
      <trkpt lat="45.0807" lon="6.05846">
        <ele>1456.2</ele>
        <time>2015-06-02T11:45:45Z</time>
      </trkpt>
      <trkpt lat="45.08074" lon="6.05859">
        <ele>1454.4</ele>
        <time>2015-06-02T11:45:49Z</time>
      </trkpt>
      <trkpt lat="45.08079" lon="6.05872">
        <ele>1452.5</ele>
        <time>2015-06-02T11:45:54Z</time>
      </trkpt>
      <trkpt lat="45.08088" lon="6.05877">
        <ele>1451.7</ele>
        <time>2015-06-02T11:45:58Z</time>
      </trkpt>
      <trkpt lat="45.08096" lon="6.05887">
        <ele>1450.9</ele>
        <time>2015-06-02T11:46:03Z</time>
      </trkpt>
      <trkpt lat="45.08103" lon="6.05897">
        <ele>1450.1</ele>
        <time>2015-06-02T11:46:08Z</time>
      </trkpt>
      <trkpt lat="45.0811" lon="6.05909">
        <ele>1452.1</ele>
        <time>2015-06-02T11:46:13Z</time>
      </trkpt>
      <trkpt lat="45.08113" lon="6.05921">
        <ele>1454.1</ele>
        <time>2015-06-02T11:46:18Z</time>
      </trkpt>
      <trkpt lat="45.08117" lon="6.05933">
        <ele>1456.1</ele>
        <time>2015-06-02T11:46:23Z</time>
      </trkpt>
      <trkpt lat="45.08121" lon="6.05947">
        <ele>1458.1</ele>
        <time>2015-06-02T11:46:28Z</time>
      </trkpt>
      <trkpt lat="45.08125" lon="6.05961">
        <ele>1460.1</ele>
        <time>2015-06-02T11:46:33Z</time>
      </trkpt>
      <trkpt lat="45.0813" lon="6.05974">
        <ele>1462.9</ele>
        <time>2015-06-02T11:46:38Z</time>
      </trkpt>
      <trkpt lat="45.08136" lon="6.05985">
        <ele>1465.7</ele>
        <time>2015-06-02T11:46:43Z</time>
      </trkpt>
      <trkpt lat="45.08144" lon="6.05992">
        <ele>1468</ele>
        <time>2015-06-02T11:46:49Z</time>
      </trkpt>
      <trkpt lat="45.0815" lon="6.06002">
        <ele>1470.3</ele>
        <time>2015-06-02T11:46:54Z</time>
      </trkpt>
      <trkpt lat="45.08152" lon="6.06016">
        <ele>1472.5</ele>
        <time>2015-06-02T11:46:59Z</time>
      </trkpt>
      <trkpt lat="45.08157" lon="6.06029">
        <ele>1474.8</ele>
        <time>2015-06-02T11:47:05Z</time>
      </trkpt>
      <trkpt lat="45.08161" lon="6.06042">
        <ele>1474.3</ele>
        <time>2015-06-02T11:47:10Z</time>
      </trkpt>
      <trkpt lat="45.08163" lon="6.06057">
        <ele>1473.7</ele>
        <time>2015-06-02T11:47:16Z</time>
      </trkpt>
      <trkpt lat="45.08167" lon="6.06069">
        <ele>1473.2</ele>
        <time>2015-06-02T11:47:21Z</time>
      </trkpt>
      <trkpt lat="45.08173" lon="6.06081">
        <ele>1471.5</ele>
        <time>2015-06-02T11:47:28Z</time>
      </trkpt>
      <trkpt lat="45.08178" lon="6.06093">
        <ele>1469.9</ele>
        <time>2015-06-02T11:47:33Z</time>
      </trkpt>
      <trkpt lat="45.08183" lon="6.06105">
        <ele>1468.3</ele>
        <time>2015-06-02T11:47:38Z</time>
      </trkpt>
      <trkpt lat="45.08186" lon="6.06118">
        <ele>1466.6</ele>
        <time>2015-06-02T11:47:43Z</time>
      </trkpt>
      <trkpt lat="45.08189" lon="6.0613">
        <ele>1465.5</ele>
        <time>2015-06-02T11:47:48Z</time>
      </trkpt>
      <trkpt lat="45.08196" lon="6.06142">
        <ele>1464.5</ele>
        <time>2015-06-02T11:47:53Z</time>
      </trkpt>
      <trkpt lat="45.08199" lon="6.06155">
        <ele>1466.4</ele>
        <time>2015-06-02T11:47:58Z</time>
      </trkpt>
      <trkpt lat="45.08202" lon="6.06167">
        <ele>1468.3</ele>
        <time>2015-06-02T11:48:03Z</time>
      </trkpt>
      <trkpt lat="45.08206" lon="6.0618">
        <ele>1470.2</ele>
        <time>2015-06-02T11:48:08Z</time>
      </trkpt>
      <trkpt lat="45.08208" lon="6.06193">
        <ele>1472.1</ele>
        <time>2015-06-02T11:48:12Z</time>
      </trkpt>
      <trkpt lat="45.08211" lon="6.06206">
        <ele>1475.1</ele>
        <time>2015-06-02T11:48:17Z</time>
      </trkpt>
      <trkpt lat="45.08215" lon="6.0622">
        <ele>1479.2</ele>
        <time>2015-06-02T11:48:22Z</time>
      </trkpt>
      <trkpt lat="45.08218" lon="6.06234">
        <ele>1483.3</ele>
        <time>2015-06-02T11:48:27Z</time>
      </trkpt>
      <trkpt lat="45.0823" lon="6.06236">
        <ele>1487.4</ele>
        <time>2015-06-02T11:48:32Z</time>
      </trkpt>
      <trkpt lat="45.08239" lon="6.0623">
        <ele>1491.5</ele>
        <time>2015-06-02T11:48:35Z</time>
      </trkpt>
      <trkpt lat="45.08242" lon="6.06215">
        <ele>1495.5</ele>
        <time>2015-06-02T11:48:39Z</time>
      </trkpt>
      <trkpt lat="45.08238" lon="6.06203">
        <ele>1499.6</ele>
        <time>2015-06-02T11:48:42Z</time>
      </trkpt>
      <trkpt lat="45.08233" lon="6.06191">
        <ele>1501.2</ele>
        <time>2015-06-02T11:48:45Z</time>
      </trkpt>
      <trkpt lat="45.08226" lon="6.06178">
        <ele>1502.7</ele>
        <time>2015-06-02T11:48:49Z</time>
      </trkpt>
      <trkpt lat="45.08221" lon="6.06164">
        <ele>1504.3</ele>
        <time>2015-06-02T11:48:53Z</time>
      </trkpt>
      <trkpt lat="45.08219" lon="6.0615">
        <ele>1505.8</ele>
        <time>2015-06-02T11:48:57Z</time>
      </trkpt>
      <trkpt lat="45.08218" lon="6.06135">
        <ele>1506.3</ele>
        <time>2015-06-02T11:49:02Z</time>
      </trkpt>
      <trkpt lat="45.0822" lon="6.06122">
        <ele>1506.7</ele>
        <time>2015-06-02T11:49:06Z</time>
      </trkpt>
      <trkpt lat="45.0822" lon="6.06107">
        <ele>1507.5</ele>
        <time>2015-06-02T11:49:11Z</time>
      </trkpt>
      <trkpt lat="45.08221" lon="6.06092">
        <ele>1508.2</ele>
        <time>2015-06-02T11:49:16Z</time>
      </trkpt>
      <trkpt lat="45.08223" lon="6.06079">
        <ele>1508.9</ele>
        <time>2015-06-02T11:49:20Z</time>
      </trkpt>
      <trkpt lat="45.08226" lon="6.06067">
        <ele>1509.6</ele>
        <time>2015-06-02T11:49:24Z</time>
      </trkpt>
      <trkpt lat="45.08228" lon="6.06053">
        <ele>1510.4</ele>
        <time>2015-06-02T11:49:29Z</time>
      </trkpt>
      <trkpt lat="45.08228" lon="6.06039">
        <ele>1510.6</ele>
        <time>2015-06-02T11:49:34Z</time>
      </trkpt>
      <trkpt lat="45.08228" lon="6.06026">
        <ele>1510.8</ele>
        <time>2015-06-02T11:49:40Z</time>
      </trkpt>
      <trkpt lat="45.08228" lon="6.06011">
        <ele>1511</ele>
        <time>2015-06-02T11:49:46Z</time>
      </trkpt>
      <trkpt lat="45.08228" lon="6.05998">
        <ele>1511.2</ele>
        <time>2015-06-02T11:49:51Z</time>
      </trkpt>
      <trkpt lat="45.0823" lon="6.05985">
        <ele>1511.4</ele>
        <time>2015-06-02T11:49:56Z</time>
      </trkpt>
      <trkpt lat="45.0823" lon="6.05972">
        <ele>1511.5</ele>
        <time>2015-06-02T11:50:01Z</time>
      </trkpt>
      <trkpt lat="45.0823" lon="6.05957">
        <ele>1511.5</ele>
        <time>2015-06-02T11:50:06Z</time>
      </trkpt>
      <trkpt lat="45.08229" lon="6.05943">
        <ele>1511.2</ele>
        <time>2015-06-02T11:50:11Z</time>
      </trkpt>
      <trkpt lat="45.08229" lon="6.0593">
        <ele>1510.9</ele>
        <time>2015-06-02T11:50:16Z</time>
      </trkpt>
      <trkpt lat="45.08229" lon="6.05917">
        <ele>1510.6</ele>
        <time>2015-06-02T11:50:21Z</time>
      </trkpt>
      <trkpt lat="45.08231" lon="6.05903">
        <ele>1510.4</ele>
        <time>2015-06-02T11:50:27Z</time>
      </trkpt>
      <trkpt lat="45.08233" lon="6.0589">
        <ele>1510.1</ele>
        <time>2015-06-02T11:50:32Z</time>
      </trkpt>
      <trkpt lat="45.08233" lon="6.05878">
        <ele>1509.1</ele>
        <time>2015-06-02T11:50:36Z</time>
      </trkpt>
      <trkpt lat="45.0823" lon="6.05863">
        <ele>1508.1</ele>
        <time>2015-06-02T11:50:40Z</time>
      </trkpt>
      <trkpt lat="45.08229" lon="6.05849">
        <ele>1507.1</ele>
        <time>2015-06-02T11:50:44Z</time>
      </trkpt>
      <trkpt lat="45.08228" lon="6.05833">
        <ele>1506.1</ele>
        <time>2015-06-02T11:50:49Z</time>
      </trkpt>
      <trkpt lat="45.08229" lon="6.05818">
        <ele>1505.1</ele>
        <time>2015-06-02T11:50:53Z</time>
      </trkpt>
      <trkpt lat="45.08231" lon="6.05804">
        <ele>1504.1</ele>
        <time>2015-06-02T11:50:56Z</time>
      </trkpt>
      <trkpt lat="45.08232" lon="6.05789">
        <ele>1503.3</ele>
        <time>2015-06-02T11:51:00Z</time>
      </trkpt>
      <trkpt lat="45.08238" lon="6.05777">
        <ele>1502.5</ele>
        <time>2015-06-02T11:51:04Z</time>
      </trkpt>
      <trkpt lat="45.08245" lon="6.05766">
        <ele>1501.6</ele>
        <time>2015-06-02T11:51:08Z</time>
      </trkpt>
      <trkpt lat="45.08252" lon="6.05756">
        <ele>1501.8</ele>
        <time>2015-06-02T11:51:12Z</time>
      </trkpt>
      <trkpt lat="45.08262" lon="6.05755">
        <ele>1502</ele>
        <time>2015-06-02T11:51:17Z</time>
      </trkpt>
      <trkpt lat="45.08272" lon="6.05758">
        <ele>1503</ele>
        <time>2015-06-02T11:51:22Z</time>
      </trkpt>
      <trkpt lat="45.08281" lon="6.05763">
        <ele>1504</ele>
        <time>2015-06-02T11:51:26Z</time>
      </trkpt>
      <trkpt lat="45.08291" lon="6.05766">
        <ele>1505</ele>
        <time>2015-06-02T11:51:31Z</time>
      </trkpt>
      <trkpt lat="45.08302" lon="6.05767">
        <ele>1506</ele>
        <time>2015-06-02T11:51:36Z</time>
      </trkpt>
      <trkpt lat="45.08311" lon="6.05768">
        <ele>1507</ele>
        <time>2015-06-02T11:51:41Z</time>
      </trkpt>
      <trkpt lat="45.0832" lon="6.05767">
        <ele>1508</ele>
        <time>2015-06-02T11:51:47Z</time>
      </trkpt>
      <trkpt lat="45.08329" lon="6.05767">
        <ele>1509</ele>
        <time>2015-06-02T11:51:53Z</time>
      </trkpt>
      <trkpt lat="45.08338" lon="6.05762">
        <ele>1510</ele>
        <time>2015-06-02T11:51:58Z</time>
      </trkpt>
      <trkpt lat="45.08348" lon="6.05756">
        <ele>1511</ele>
        <time>2015-06-02T11:52:04Z</time>
      </trkpt>
      <trkpt lat="45.08357" lon="6.05755">
        <ele>1511</ele>
        <time>2015-06-02T11:52:09Z</time>
      </trkpt>
      <trkpt lat="45.08366" lon="6.05759">
        <ele>1512.1</ele>
        <time>2015-06-02T11:52:13Z</time>
      </trkpt>
      <trkpt lat="45.08366" lon="6.05775">
        <ele>1513.2</ele>
        <time>2015-06-02T11:52:17Z</time>
      </trkpt>
      <trkpt lat="45.08359" lon="6.05784">
        <ele>1514.3</ele>
        <time>2015-06-02T11:52:21Z</time>
      </trkpt>
      <trkpt lat="45.08349" lon="6.05791">
        <ele>1515.4</ele>
        <time>2015-06-02T11:52:26Z</time>
      </trkpt>
      <trkpt lat="45.08341" lon="6.05801">
        <ele>1516.5</ele>
        <time>2015-06-02T11:52:30Z</time>
      </trkpt>
      <trkpt lat="45.08334" lon="6.05811">
        <ele>1517.5</ele>
        <time>2015-06-02T11:52:34Z</time>
      </trkpt>
      <trkpt lat="45.08326" lon="6.05821">
        <ele>1518.6</ele>
        <time>2015-06-02T11:52:39Z</time>
      </trkpt>
      <trkpt lat="45.08321" lon="6.05834">
        <ele>1521.1</ele>
        <time>2015-06-02T11:52:45Z</time>
      </trkpt>
      <trkpt lat="45.08317" lon="6.05847">
        <ele>1523.5</ele>
        <time>2015-06-02T11:52:51Z</time>
      </trkpt>
      <trkpt lat="45.08312" lon="6.05859">
        <ele>1526</ele>
        <time>2015-06-02T11:52:56Z</time>
      </trkpt>
      <trkpt lat="45.08309" lon="6.05873">
        <ele>1528.5</ele>
        <time>2015-06-02T11:53:01Z</time>
      </trkpt>
      <trkpt lat="45.08304" lon="6.05886">
        <ele>1529.8</ele>
        <time>2015-06-02T11:53:06Z</time>
      </trkpt>
      <trkpt lat="45.08302" lon="6.05901">
        <ele>1531.9</ele>
        <time>2015-06-02T11:53:12Z</time>
      </trkpt>
      <trkpt lat="45.08301" lon="6.05916">
        <ele>1534</ele>
        <time>2015-06-02T11:53:18Z</time>
      </trkpt>
      <trkpt lat="45.083" lon="6.05931">
        <ele>1536.1</ele>
        <time>2015-06-02T11:53:24Z</time>
      </trkpt>
      <trkpt lat="45.083" lon="6.05945">
        <ele>1538.2</ele>
        <time>2015-06-02T11:53:29Z</time>
      </trkpt>
      <trkpt lat="45.083" lon="6.05959">
        <ele>1540.3</ele>
        <time>2015-06-02T11:53:34Z</time>
      </trkpt>
      <trkpt lat="45.08301" lon="6.05973">
        <ele>1542.4</ele>
        <time>2015-06-02T11:53:40Z</time>
      </trkpt>
      <trkpt lat="45.083" lon="6.05986">
        <ele>1543.5</ele>
        <time>2015-06-02T11:53:46Z</time>
      </trkpt>
      <trkpt lat="45.08302" lon="6.06">
        <ele>1544.5</ele>
        <time>2015-06-02T11:53:52Z</time>
      </trkpt>
      <trkpt lat="45.08303" lon="6.06015">
        <ele>1545.6</ele>
        <time>2015-06-02T11:53:58Z</time>
      </trkpt>
      <trkpt lat="45.08306" lon="6.0603">
        <ele>1546.7</ele>
        <time>2015-06-02T11:54:03Z</time>
      </trkpt>
      <trkpt lat="45.08309" lon="6.06042">
        <ele>1547.8</ele>
        <time>2015-06-02T11:54:08Z</time>
      </trkpt>
      <trkpt lat="45.08313" lon="6.06055">
        <ele>1548.2</ele>
        <time>2015-06-02T11:54:15Z</time>
      </trkpt>
      <trkpt lat="45.08317" lon="6.06068">
        <ele>1548.3</ele>
        <time>2015-06-02T11:54:21Z</time>
      </trkpt>
      <trkpt lat="45.08319" lon="6.06082">
        <ele>1548.4</ele>
        <time>2015-06-02T11:54:26Z</time>
      </trkpt>
      <trkpt lat="45.08321" lon="6.06095">
        <ele>1548.5</ele>
        <time>2015-06-02T11:54:31Z</time>
      </trkpt>
      <trkpt lat="45.08323" lon="6.06108">
        <ele>1548.5</ele>
        <time>2015-06-02T11:54:35Z</time>
      </trkpt>
      <trkpt lat="45.08324" lon="6.06122">
        <ele>1548.6</ele>
        <time>2015-06-02T11:54:41Z</time>
      </trkpt>
      <trkpt lat="45.08327" lon="6.06137">
        <ele>1548.4</ele>
        <time>2015-06-02T11:54:47Z</time>
      </trkpt>
      <trkpt lat="45.08329" lon="6.0615">
        <ele>1548.1</ele>
        <time>2015-06-02T11:54:52Z</time>
      </trkpt>
      <trkpt lat="45.08336" lon="6.06162">
        <ele>1547.4</ele>
        <time>2015-06-02T11:54:59Z</time>
      </trkpt>
      <trkpt lat="45.0834" lon="6.06175">
        <ele>1546.6</ele>
        <time>2015-06-02T11:55:05Z</time>
      </trkpt>
      <trkpt lat="45.08343" lon="6.06188">
        <ele>1545.9</ele>
        <time>2015-06-02T11:55:11Z</time>
      </trkpt>
      <trkpt lat="45.08346" lon="6.06202">
        <ele>1545.2</ele>
        <time>2015-06-02T11:55:18Z</time>
      </trkpt>
      <trkpt lat="45.08347" lon="6.06215">
        <ele>1544.7</ele>
        <time>2015-06-02T11:55:23Z</time>
      </trkpt>
      <trkpt lat="45.08346" lon="6.06228">
        <ele>1544.3</ele>
        <time>2015-06-02T11:55:28Z</time>
      </trkpt>
      <trkpt lat="45.08347" lon="6.06242">
        <ele>1543.8</ele>
        <time>2015-06-02T11:55:33Z</time>
      </trkpt>
      <trkpt lat="45.08347" lon="6.06256">
        <ele>1543.4</ele>
        <time>2015-06-02T11:55:38Z</time>
      </trkpt>
      <trkpt lat="45.08349" lon="6.0627">
        <ele>1543.4</ele>
        <time>2015-06-02T11:55:43Z</time>
      </trkpt>
      <trkpt lat="45.08359" lon="6.06272">
        <ele>1543.4</ele>
        <time>2015-06-02T11:55:49Z</time>
      </trkpt>
      <trkpt lat="45.08366" lon="6.06263">
        <ele>1543.4</ele>
        <time>2015-06-02T11:55:52Z</time>
      </trkpt>
      <trkpt lat="45.08369" lon="6.06247">
        <ele>1543.8</ele>
        <time>2015-06-02T11:55:55Z</time>
      </trkpt>
      <trkpt lat="45.08367" lon="6.0623">
        <ele>1544.3</ele>
        <time>2015-06-02T11:55:58Z</time>
      </trkpt>
      <trkpt lat="45.08364" lon="6.06216">
        <ele>1544.7</ele>
        <time>2015-06-02T11:56:01Z</time>
      </trkpt>
      <trkpt lat="45.08363" lon="6.06199">
        <ele>1545.5</ele>
        <time>2015-06-02T11:56:05Z</time>
      </trkpt>
      <trkpt lat="45.08362" lon="6.06185">
        <ele>1546.2</ele>
        <time>2015-06-02T11:56:09Z</time>
      </trkpt>
      <trkpt lat="45.08362" lon="6.06172">
        <ele>1549.2</ele>
        <time>2015-06-02T11:56:13Z</time>
      </trkpt>
      <trkpt lat="45.08362" lon="6.06158">
        <ele>1552.2</ele>
        <time>2015-06-02T11:56:18Z</time>
      </trkpt>
      <trkpt lat="45.08364" lon="6.06144">
        <ele>1555.2</ele>
        <time>2015-06-02T11:56:24Z</time>
      </trkpt>
      <trkpt lat="45.0837" lon="6.06133">
        <ele>1557.7</ele>
        <time>2015-06-02T11:56:28Z</time>
      </trkpt>
      <trkpt lat="45.08374" lon="6.06122">
        <ele>1560.3</ele>
        <time>2015-06-02T11:56:32Z</time>
      </trkpt>
      <trkpt lat="45.08379" lon="6.06111">
        <ele>1562.8</ele>
        <time>2015-06-02T11:56:36Z</time>
      </trkpt>
      <trkpt lat="45.08386" lon="6.06101">
        <ele>1564.5</ele>
        <time>2015-06-02T11:56:41Z</time>
      </trkpt>
      <trkpt lat="45.08391" lon="6.06091">
        <ele>1566.3</ele>
        <time>2015-06-02T11:56:46Z</time>
      </trkpt>
      <trkpt lat="45.08398" lon="6.0608">
        <ele>1568</ele>
        <time>2015-06-02T11:56:52Z</time>
      </trkpt>
      <trkpt lat="45.08404" lon="6.06069">
        <ele>1569.5</ele>
        <time>2015-06-02T11:56:58Z</time>
      </trkpt>
      <trkpt lat="45.08411" lon="6.0606">
        <ele>1570.9</ele>
        <time>2015-06-02T11:57:03Z</time>
      </trkpt>
      <trkpt lat="45.08418" lon="6.06049">
        <ele>1571.5</ele>
        <time>2015-06-02T11:57:09Z</time>
      </trkpt>
      <trkpt lat="45.08425" lon="6.06041">
        <ele>1572</ele>
        <time>2015-06-02T11:57:15Z</time>
      </trkpt>
      <trkpt lat="45.08433" lon="6.06033">
        <ele>1572.5</ele>
        <time>2015-06-02T11:57:21Z</time>
      </trkpt>
      <trkpt lat="45.08441" lon="6.06027">
        <ele>1573.1</ele>
        <time>2015-06-02T11:57:28Z</time>
      </trkpt>
      <trkpt lat="45.0845" lon="6.06024">
        <ele>1573.6</ele>
        <time>2015-06-02T11:57:34Z</time>
      </trkpt>
      <trkpt lat="45.08459" lon="6.06022">
        <ele>1574.2</ele>
        <time>2015-06-02T11:57:41Z</time>
      </trkpt>
      <trkpt lat="45.08469" lon="6.06019">
        <ele>1575.5</ele>
        <time>2015-06-02T11:57:49Z</time>
      </trkpt>
      <trkpt lat="45.08478" lon="6.06016">
        <ele>1576.9</ele>
        <time>2015-06-02T11:57:55Z</time>
      </trkpt>
      <trkpt lat="45.08486" lon="6.0601">
        <ele>1578.3</ele>
        <time>2015-06-02T11:58:02Z</time>
      </trkpt>
      <trkpt lat="45.08497" lon="6.06008">
        <ele>1579.6</ele>
        <time>2015-06-02T11:58:08Z</time>
      </trkpt>
      <trkpt lat="45.08507" lon="6.06005">
        <ele>1582.8</ele>
        <time>2015-06-02T11:58:13Z</time>
      </trkpt>
      <trkpt lat="45.08517" lon="6.06004">
        <ele>1584.6</ele>
        <time>2015-06-02T11:58:18Z</time>
      </trkpt>
      <trkpt lat="45.08527" lon="6.05998">
        <ele>1585.2</ele>
        <time>2015-06-02T11:58:24Z</time>
      </trkpt>
      <trkpt lat="45.08536" lon="6.05992">
        <ele>1585.7</ele>
        <time>2015-06-02T11:58:30Z</time>
      </trkpt>
      <trkpt lat="45.08544" lon="6.05984">
        <ele>1586.3</ele>
        <time>2015-06-02T11:58:36Z</time>
      </trkpt>
      <trkpt lat="45.08553" lon="6.05979">
        <ele>1586.8</ele>
        <time>2015-06-02T11:58:41Z</time>
      </trkpt>
      <trkpt lat="45.0856" lon="6.05972">
        <ele>1587.4</ele>
        <time>2015-06-02T11:58:47Z</time>
      </trkpt>
      <trkpt lat="45.0857" lon="6.05969">
        <ele>1587.9</ele>
        <time>2015-06-02T11:58:54Z</time>
      </trkpt>
      <trkpt lat="45.08579" lon="6.05964">
        <ele>1588.5</ele>
        <time>2015-06-02T11:59:02Z</time>
      </trkpt>
      <trkpt lat="45.08587" lon="6.05957">
        <ele>1589</ele>
        <time>2015-06-02T11:59:09Z</time>
      </trkpt>
      <trkpt lat="45.08595" lon="6.05949">
        <ele>1591.4</ele>
        <time>2015-06-02T11:59:17Z</time>
      </trkpt>
      <trkpt lat="45.08602" lon="6.05939">
        <ele>1591.9</ele>
        <time>2015-06-02T11:59:24Z</time>
      </trkpt>
      <trkpt lat="45.08611" lon="6.05932">
        <ele>1592.5</ele>
        <time>2015-06-02T11:59:31Z</time>
      </trkpt>
      <trkpt lat="45.0862" lon="6.05926">
        <ele>1593.1</ele>
        <time>2015-06-02T11:59:37Z</time>
      </trkpt>
      <trkpt lat="45.08627" lon="6.05916">
        <ele>1593.7</ele>
        <time>2015-06-02T11:59:43Z</time>
      </trkpt>
      <trkpt lat="45.08634" lon="6.05907">
        <ele>1594.4</ele>
        <time>2015-06-02T11:59:49Z</time>
      </trkpt>
      <trkpt lat="45.08642" lon="6.05897">
        <ele>1595</ele>
        <time>2015-06-02T11:59:55Z</time>
      </trkpt>
      <trkpt lat="45.0865" lon="6.05889">
        <ele>1595.6</ele>
        <time>2015-06-02T12:00:00Z</time>
      </trkpt>
      <trkpt lat="45.08658" lon="6.05879">
        <ele>1596.3</ele>
        <time>2015-06-02T12:00:05Z</time>
      </trkpt>
      <trkpt lat="45.08666" lon="6.05873">
        <ele>1596.9</ele>
        <time>2015-06-02T12:00:10Z</time>
      </trkpt>
      <trkpt lat="45.08672" lon="6.05863">
        <ele>1597.5</ele>
        <time>2015-06-02T12:00:20Z</time>
      </trkpt>
      <trkpt lat="45.08681" lon="6.05862">
        <ele>1598.1</ele>
        <time>2015-06-02T12:00:25Z</time>
      </trkpt>
      <trkpt lat="45.08689" lon="6.05854">
        <ele>1598.6</ele>
        <time>2015-06-02T12:00:33Z</time>
      </trkpt>
      <trkpt lat="45.08696" lon="6.05845">
        <ele>1599.2</ele>
        <time>2015-06-02T12:00:40Z</time>
      </trkpt>
      <trkpt lat="45.08704" lon="6.05838">
        <ele>1600.9</ele>
        <time>2015-06-02T12:00:45Z</time>
      </trkpt>
      <trkpt lat="45.08712" lon="6.05831">
        <ele>1602.3</ele>
        <time>2015-06-02T12:00:49Z</time>
      </trkpt>
      <trkpt lat="45.08722" lon="6.05829">
        <ele>1603.6</ele>
        <time>2015-06-02T12:00:55Z</time>
      </trkpt>
      <trkpt lat="45.08731" lon="6.05824">
        <ele>1605</ele>
        <time>2015-06-02T12:01:00Z</time>
      </trkpt>
      <trkpt lat="45.0874" lon="6.05817">
        <ele>1606.4</ele>
        <time>2015-06-02T12:01:06Z</time>
      </trkpt>
      <trkpt lat="45.08747" lon="6.0581">
        <ele>1607.7</ele>
        <time>2015-06-02T12:01:12Z</time>
      </trkpt>
      <trkpt lat="45.08755" lon="6.05802">
        <ele>1609.1</ele>
        <time>2015-06-02T12:01:20Z</time>
      </trkpt>
      <trkpt lat="45.08762" lon="6.05791">
        <ele>1612</ele>
        <time>2015-06-02T12:01:26Z</time>
      </trkpt>
      <trkpt lat="45.0877" lon="6.05782">
        <ele>1613.2</ele>
        <time>2015-06-02T12:01:33Z</time>
      </trkpt>
      <trkpt lat="45.08778" lon="6.05773">
        <ele>1614.4</ele>
        <time>2015-06-02T12:01:40Z</time>
      </trkpt>
      <trkpt lat="45.08785" lon="6.05765">
        <ele>1615.5</ele>
        <time>2015-06-02T12:01:47Z</time>
      </trkpt>
      <trkpt lat="45.08792" lon="6.05754">
        <ele>1616.8</ele>
        <time>2015-06-02T12:01:56Z</time>
      </trkpt>
      <trkpt lat="45.088" lon="6.05746">
        <ele>1618.5</ele>
        <time>2015-06-02T12:02:02Z</time>
      </trkpt>
      <trkpt lat="45.08805" lon="6.05734">
        <ele>1620.1</ele>
        <time>2015-06-02T12:02:08Z</time>
      </trkpt>
      <trkpt lat="45.08812" lon="6.05724">
        <ele>1621.7</ele>
        <time>2015-06-02T12:02:14Z</time>
      </trkpt>
      <trkpt lat="45.08819" lon="6.05714">
        <ele>1623.4</ele>
        <time>2015-06-02T12:02:20Z</time>
      </trkpt>
      <trkpt lat="45.08824" lon="6.05701">
        <ele>1625</ele>
        <time>2015-06-02T12:02:28Z</time>
      </trkpt>
      <trkpt lat="45.0883" lon="6.0569">
        <ele>1627.4</ele>
        <time>2015-06-02T12:02:36Z</time>
      </trkpt>
      <trkpt lat="45.08834" lon="6.05677">
        <ele>1628.2</ele>
        <time>2015-06-02T12:02:42Z</time>
      </trkpt>
      <trkpt lat="45.08837" lon="6.05664">
        <ele>1629</ele>
        <time>2015-06-02T12:02:48Z</time>
      </trkpt>
      <trkpt lat="45.08837" lon="6.05649">
        <ele>1629.8</ele>
        <time>2015-06-02T12:02:53Z</time>
      </trkpt>
      <trkpt lat="45.08838" lon="6.05636">
        <ele>1630.6</ele>
        <time>2015-06-02T12:02:57Z</time>
      </trkpt>
      <trkpt lat="45.08836" lon="6.05623">
        <ele>1631.4</ele>
        <time>2015-06-02T12:03:02Z</time>
      </trkpt>
      <trkpt lat="45.08831" lon="6.05611">
        <ele>1632.1</ele>
        <time>2015-06-02T12:03:07Z</time>
      </trkpt>
      <trkpt lat="45.08824" lon="6.056">
        <ele>1632.8</ele>
        <time>2015-06-02T12:03:12Z</time>
      </trkpt>
      <trkpt lat="45.0882" lon="6.05587">
        <ele>1633.5</ele>
        <time>2015-06-02T12:03:17Z</time>
      </trkpt>
      <trkpt lat="45.0883" lon="6.05585">
        <ele>1634.3</ele>
        <time>2015-06-02T12:03:23Z</time>
      </trkpt>
      <trkpt lat="45.08838" lon="6.05594">
        <ele>1636</ele>
        <time>2015-06-02T12:03:28Z</time>
      </trkpt>
      <trkpt lat="45.08845" lon="6.05603">
        <ele>1637</ele>
        <time>2015-06-02T12:03:34Z</time>
      </trkpt>
      <trkpt lat="45.08853" lon="6.05611">
        <ele>1638</ele>
        <time>2015-06-02T12:03:41Z</time>
      </trkpt>
      <trkpt lat="45.08861" lon="6.05618">
        <ele>1639</ele>
        <time>2015-06-02T12:03:48Z</time>
      </trkpt>
      <trkpt lat="45.08871" lon="6.05622">
        <ele>1640</ele>
        <time>2015-06-02T12:03:56Z</time>
      </trkpt>
      <trkpt lat="45.0888" lon="6.05628">
        <ele>1641</ele>
        <time>2015-06-02T12:04:04Z</time>
      </trkpt>
      <trkpt lat="45.08889" lon="6.05636">
        <ele>1642</ele>
        <time>2015-06-02T12:04:12Z</time>
      </trkpt>
      <trkpt lat="45.08898" lon="6.05644">
        <ele>1643.3</ele>
        <time>2015-06-02T12:04:17Z</time>
      </trkpt>
      <trkpt lat="45.08902" lon="6.05656">
        <ele>1644.5</ele>
        <time>2015-06-02T12:04:22Z</time>
      </trkpt>
      <trkpt lat="45.08906" lon="6.0567">
        <ele>1645.8</ele>
        <time>2015-06-02T12:04:27Z</time>
      </trkpt>
      <trkpt lat="45.08908" lon="6.05683">
        <ele>1647.1</ele>
        <time>2015-06-02T12:04:32Z</time>
      </trkpt>
      <trkpt lat="45.0891" lon="6.05697">
        <ele>1647.4</ele>
        <time>2015-06-02T12:04:37Z</time>
      </trkpt>
      <trkpt lat="45.08911" lon="6.05712">
        <ele>1647.6</ele>
        <time>2015-06-02T12:04:43Z</time>
      </trkpt>
      <trkpt lat="45.08912" lon="6.05727">
        <ele>1647.9</ele>
        <time>2015-06-02T12:04:50Z</time>
      </trkpt>
      <trkpt lat="45.08911" lon="6.05741">
        <ele>1648.7</ele>
        <time>2015-06-02T12:04:56Z</time>
      </trkpt>
      <trkpt lat="45.08912" lon="6.05756">
        <ele>1649.5</ele>
        <time>2015-06-02T12:05:03Z</time>
      </trkpt>
      <trkpt lat="45.08911" lon="6.05769">
        <ele>1650.4</ele>
        <time>2015-06-02T12:05:10Z</time>
      </trkpt>
      <trkpt lat="45.08912" lon="6.05785">
        <ele>1651.2</ele>
        <time>2015-06-02T12:05:16Z</time>
      </trkpt>
      <trkpt lat="45.08914" lon="6.058">
        <ele>1651.7</ele>
        <time>2015-06-02T12:05:22Z</time>
      </trkpt>
      <trkpt lat="45.08912" lon="6.05813">
        <ele>1652.3</ele>
        <time>2015-06-02T12:05:28Z</time>
      </trkpt>
      <trkpt lat="45.08911" lon="6.05826">
        <ele>1653.5</ele>
        <time>2015-06-02T12:05:33Z</time>
      </trkpt>
      <trkpt lat="45.08908" lon="6.0584">
        <ele>1654.8</ele>
        <time>2015-06-02T12:05:39Z</time>
      </trkpt>
      <trkpt lat="45.08909" lon="6.05853">
        <ele>1656.1</ele>
        <time>2015-06-02T12:05:46Z</time>
      </trkpt>
      <trkpt lat="45.08909" lon="6.05868">
        <ele>1657.4</ele>
        <time>2015-06-02T12:05:53Z</time>
      </trkpt>
      <trkpt lat="45.08907" lon="6.05881">
        <ele>1658.6</ele>
        <time>2015-06-02T12:05:59Z</time>
      </trkpt>
      <trkpt lat="45.08907" lon="6.05894">
        <ele>1659.4</ele>
        <time>2015-06-02T12:06:07Z</time>
      </trkpt>
      <trkpt lat="45.08905" lon="6.05906">
        <ele>1661.4</ele>
        <time>2015-06-02T12:06:13Z</time>
      </trkpt>
      <trkpt lat="45.08904" lon="6.0592">
        <ele>1663.4</ele>
        <time>2015-06-02T12:06:20Z</time>
      </trkpt>
      <trkpt lat="45.08902" lon="6.05933">
        <ele>1665.4</ele>
        <time>2015-06-02T12:06:26Z</time>
      </trkpt>
      <trkpt lat="45.08899" lon="6.05945">
        <ele>1667.4</ele>
        <time>2015-06-02T12:06:32Z</time>
      </trkpt>
      <trkpt lat="45.08898" lon="6.05959">
        <ele>1669.4</ele>
        <time>2015-06-02T12:06:38Z</time>
      </trkpt>
      <trkpt lat="45.08897" lon="6.05975">
        <ele>1668.4</ele>
        <time>2015-06-02T12:06:45Z</time>
      </trkpt>
      <trkpt lat="45.08893" lon="6.05988">
        <ele>1667.4</ele>
        <time>2015-06-02T12:06:52Z</time>
      </trkpt>
      <trkpt lat="45.08889" lon="6.06001">
        <ele>1669.9</ele>
        <time>2015-06-02T12:06:57Z</time>
      </trkpt>
      <trkpt lat="45.08884" lon="6.06013">
        <ele>1671.2</ele>
        <time>2015-06-02T12:07:01Z</time>
      </trkpt>
      <trkpt lat="45.08878" lon="6.06022">
        <ele>1672.5</ele>
        <time>2015-06-02T12:07:06Z</time>
      </trkpt>
      <trkpt lat="45.08872" lon="6.06034">
        <ele>1673.7</ele>
        <time>2015-06-02T12:07:12Z</time>
      </trkpt>
      <trkpt lat="45.0887" lon="6.06047">
        <ele>1673.7</ele>
        <time>2015-06-02T12:07:20Z</time>
      </trkpt>
      <trkpt lat="45.08878" lon="6.06053">
        <ele>1673.7</ele>
        <time>2015-06-02T12:07:25Z</time>
      </trkpt>
      <trkpt lat="45.08886" lon="6.06048">
        <ele>1673.7</ele>
        <time>2015-06-02T12:07:29Z</time>
      </trkpt>
      <trkpt lat="45.08892" lon="6.06036">
        <ele>1673.7</ele>
        <time>2015-06-02T12:07:34Z</time>
      </trkpt>
      <trkpt lat="45.08897" lon="6.06024">
        <ele>1673.7</ele>
        <time>2015-06-02T12:07:38Z</time>
      </trkpt>
      <trkpt lat="45.08906" lon="6.06018">
        <ele>1676</ele>
        <time>2015-06-02T12:07:43Z</time>
      </trkpt>
      <trkpt lat="45.08916" lon="6.06013">
        <ele>1678.3</ele>
        <time>2015-06-02T12:07:48Z</time>
      </trkpt>
      <trkpt lat="45.08924" lon="6.06005">
        <ele>1678.1</ele>
        <time>2015-06-02T12:07:53Z</time>
      </trkpt>
      <trkpt lat="45.08932" lon="6.05998">
        <ele>1679.2</ele>
        <time>2015-06-02T12:07:58Z</time>
      </trkpt>
      <trkpt lat="45.08939" lon="6.05989">
        <ele>1680.3</ele>
        <time>2015-06-02T12:08:03Z</time>
      </trkpt>
      <trkpt lat="45.08946" lon="6.05979">
        <ele>1681.4</ele>
        <time>2015-06-02T12:08:09Z</time>
      </trkpt>
      <trkpt lat="45.08955" lon="6.05974">
        <ele>1682.5</ele>
        <time>2015-06-02T12:08:15Z</time>
      </trkpt>
      <trkpt lat="45.08963" lon="6.05964">
        <ele>1683.5</ele>
        <time>2015-06-02T12:08:22Z</time>
      </trkpt>
      <trkpt lat="45.08971" lon="6.05956">
        <ele>1684.6</ele>
        <time>2015-06-02T12:08:29Z</time>
      </trkpt>
      <trkpt lat="45.08976" lon="6.05944">
        <ele>1685.7</ele>
        <time>2015-06-02T12:08:36Z</time>
      </trkpt>
      <trkpt lat="45.08983" lon="6.05936">
        <ele>1685.8</ele>
        <time>2015-06-02T12:08:42Z</time>
      </trkpt>
      <trkpt lat="45.08989" lon="6.05925">
        <ele>1685.9</ele>
        <time>2015-06-02T12:08:49Z</time>
      </trkpt>
      <trkpt lat="45.08997" lon="6.05915">
        <ele>1686</ele>
        <time>2015-06-02T12:08:55Z</time>
      </trkpt>
      <trkpt lat="45.09006" lon="6.05906">
        <ele>1685</ele>
        <time>2015-06-02T12:09:00Z</time>
      </trkpt>
      <trkpt lat="45.09013" lon="6.05895">
        <ele>1684</ele>
        <time>2015-06-02T12:09:06Z</time>
      </trkpt>
      <trkpt lat="45.09019" lon="6.05883">
        <ele>1685.4</ele>
        <time>2015-06-02T12:09:12Z</time>
      </trkpt>
      <trkpt lat="45.09025" lon="6.05873">
        <ele>1686.7</ele>
        <time>2015-06-02T12:09:17Z</time>
      </trkpt>
      <trkpt lat="45.09033" lon="6.05864">
        <ele>1688.1</ele>
        <time>2015-06-02T12:09:24Z</time>
      </trkpt>
      <trkpt lat="45.0904" lon="6.05854">
        <ele>1689.5</ele>
        <time>2015-06-02T12:09:30Z</time>
      </trkpt>
      <trkpt lat="45.09047" lon="6.05845">
        <ele>1690.3</ele>
        <time>2015-06-02T12:09:35Z</time>
      </trkpt>
      <trkpt lat="45.09055" lon="6.05836">
        <ele>1691.1</ele>
        <time>2015-06-02T12:09:40Z</time>
      </trkpt>
      <trkpt lat="45.09061" lon="6.05826">
        <ele>1692.9</ele>
        <time>2015-06-02T12:09:46Z</time>
      </trkpt>
      <trkpt lat="45.09069" lon="6.05817">
        <ele>1694.7</ele>
        <time>2015-06-02T12:09:52Z</time>
      </trkpt>
      <trkpt lat="45.09075" lon="6.05807">
        <ele>1696.5</ele>
        <time>2015-06-02T12:09:58Z</time>
      </trkpt>
      <trkpt lat="45.09081" lon="6.05796">
        <ele>1698.4</ele>
        <time>2015-06-02T12:10:04Z</time>
      </trkpt>
      <trkpt lat="45.09088" lon="6.05786">
        <ele>1700.2</ele>
        <time>2015-06-02T12:10:10Z</time>
      </trkpt>
      <trkpt lat="45.09093" lon="6.05775">
        <ele>1699.6</ele>
        <time>2015-06-02T12:10:17Z</time>
      </trkpt>
      <trkpt lat="45.09098" lon="6.05764">
        <ele>1699.1</ele>
        <time>2015-06-02T12:10:23Z</time>
      </trkpt>
      <trkpt lat="45.09104" lon="6.05754">
        <ele>1700.7</ele>
        <time>2015-06-02T12:10:29Z</time>
      </trkpt>
      <trkpt lat="45.0911" lon="6.05742">
        <ele>1702.4</ele>
        <time>2015-06-02T12:10:35Z</time>
      </trkpt>
      <trkpt lat="45.09116" lon="6.05732">
        <ele>1704.5</ele>
        <time>2015-06-02T12:10:42Z</time>
      </trkpt>
      <trkpt lat="45.09121" lon="6.05721">
        <ele>1706.7</ele>
        <time>2015-06-02T12:10:48Z</time>
      </trkpt>
      <trkpt lat="45.09127" lon="6.0571">
        <ele>1708.9</ele>
        <time>2015-06-02T12:10:54Z</time>
      </trkpt>
      <trkpt lat="45.09132" lon="6.05699">
        <ele>1711.1</ele>
        <time>2015-06-02T12:11:01Z</time>
      </trkpt>
      <trkpt lat="45.09135" lon="6.05687">
        <ele>1713.5</ele>
        <time>2015-06-02T12:11:08Z</time>
      </trkpt>
      <trkpt lat="45.09138" lon="6.05674">
        <ele>1716</ele>
        <time>2015-06-02T12:11:15Z</time>
      </trkpt>
      <trkpt lat="45.09142" lon="6.05661">
        <ele>1718.5</ele>
        <time>2015-06-02T12:11:21Z</time>
      </trkpt>
      <trkpt lat="45.09144" lon="6.05647">
        <ele>1720.9</ele>
        <time>2015-06-02T12:11:28Z</time>
      </trkpt>
      <trkpt lat="45.09145" lon="6.05633">
        <ele>1723.4</ele>
        <time>2015-06-02T12:11:34Z</time>
      </trkpt>
      <trkpt lat="45.09146" lon="6.05619">
        <ele>1723.6</ele>
        <time>2015-06-02T12:11:40Z</time>
      </trkpt>
      <trkpt lat="45.09146" lon="6.05604">
        <ele>1724.7</ele>
        <time>2015-06-02T12:11:47Z</time>
      </trkpt>
      <trkpt lat="45.09145" lon="6.05591">
        <ele>1725</ele>
        <time>2015-06-02T12:11:53Z</time>
      </trkpt>
      <trkpt lat="45.09143" lon="6.05579">
        <ele>1725.3</ele>
        <time>2015-06-02T12:11:58Z</time>
      </trkpt>
      <trkpt lat="45.09141" lon="6.05564">
        <ele>1725.5</ele>
        <time>2015-06-02T12:12:04Z</time>
      </trkpt>
      <trkpt lat="45.0914" lon="6.05551">
        <ele>1725.8</ele>
        <time>2015-06-02T12:12:09Z</time>
      </trkpt>
      <trkpt lat="45.09145" lon="6.0554">
        <ele>1725.8</ele>
        <time>2015-06-02T12:12:17Z</time>
      </trkpt>
      <trkpt lat="45.0915" lon="6.05553">
        <ele>1725.8</ele>
        <time>2015-06-02T12:12:21Z</time>
      </trkpt>
      <trkpt lat="45.09151" lon="6.05567">
        <ele>1725.5</ele>
        <time>2015-06-02T12:12:25Z</time>
      </trkpt>
      <trkpt lat="45.09152" lon="6.05582">
        <ele>1725.3</ele>
        <time>2015-06-02T12:12:30Z</time>
      </trkpt>
      <trkpt lat="45.09155" lon="6.05597">
        <ele>1725</ele>
        <time>2015-06-02T12:12:35Z</time>
      </trkpt>
      <trkpt lat="45.09157" lon="6.05612">
        <ele>1724.7</ele>
        <time>2015-06-02T12:12:41Z</time>
      </trkpt>
      <trkpt lat="45.09161" lon="6.05624">
        <ele>1723.6</ele>
        <time>2015-06-02T12:12:46Z</time>
      </trkpt>
      <trkpt lat="45.09165" lon="6.05635">
        <ele>1723.4</ele>
        <time>2015-06-02T12:12:51Z</time>
      </trkpt>
      <trkpt lat="45.09169" lon="6.05648">
        <ele>1723.1</ele>
        <time>2015-06-02T12:12:57Z</time>
      </trkpt>
      <trkpt lat="45.09173" lon="6.0566">
        <ele>1722.8</ele>
        <time>2015-06-02T12:13:03Z</time>
      </trkpt>
      <trkpt lat="45.09178" lon="6.05673">
        <ele>1722.5</ele>
        <time>2015-06-02T12:13:09Z</time>
      </trkpt>
      <trkpt lat="45.09181" lon="6.05686">
        <ele>1722.3</ele>
        <time>2015-06-02T12:13:14Z</time>
      </trkpt>
      <trkpt lat="45.09183" lon="6.05699">
        <ele>1722</ele>
        <time>2015-06-02T12:13:19Z</time>
      </trkpt>
      <trkpt lat="45.09184" lon="6.05713">
        <ele>1722</ele>
        <time>2015-06-02T12:13:24Z</time>
      </trkpt>
      <trkpt lat="45.09183" lon="6.05726">
        <ele>1722</ele>
        <time>2015-06-02T12:13:28Z</time>
      </trkpt>
      <trkpt lat="45.09184" lon="6.0574">
        <ele>1722.8</ele>
        <time>2015-06-02T12:13:32Z</time>
      </trkpt>
      <trkpt lat="45.09184" lon="6.05753">
        <ele>1723.6</ele>
        <time>2015-06-02T12:13:36Z</time>
      </trkpt>
      <trkpt lat="45.09183" lon="6.0577">
        <ele>1724.5</ele>
        <time>2015-06-02T12:13:41Z</time>
      </trkpt>
      <trkpt lat="45.09182" lon="6.05783">
        <ele>1725.3</ele>
        <time>2015-06-02T12:13:45Z</time>
      </trkpt>
      <trkpt lat="45.09182" lon="6.05799">
        <ele>1726.1</ele>
        <time>2015-06-02T12:13:49Z</time>
      </trkpt>
      <trkpt lat="45.09181" lon="6.05814">
        <ele>1726.9</ele>
        <time>2015-06-02T12:13:54Z</time>
      </trkpt>
      <trkpt lat="45.0918" lon="6.05829">
        <ele>1728.9</ele>
        <time>2015-06-02T12:13:59Z</time>
      </trkpt>
      <trkpt lat="45.09179" lon="6.05842">
        <ele>1730.9</ele>
        <time>2015-06-02T12:14:03Z</time>
      </trkpt>
      <trkpt lat="45.09178" lon="6.05855">
        <ele>1732.9</ele>
        <time>2015-06-02T12:14:07Z</time>
      </trkpt>
      <trkpt lat="45.09179" lon="6.05869">
        <ele>1734.9</ele>
        <time>2015-06-02T12:14:13Z</time>
      </trkpt>
      <trkpt lat="45.0918" lon="6.05882">
        <ele>1736.9</ele>
        <time>2015-06-02T12:14:20Z</time>
      </trkpt>
      <trkpt lat="45.09181" lon="6.05896">
        <ele>1738.1</ele>
        <time>2015-06-02T12:14:28Z</time>
      </trkpt>
      <trkpt lat="45.0918" lon="6.0591">
        <ele>1740</ele>
        <time>2015-06-02T12:14:35Z</time>
      </trkpt>
      <trkpt lat="45.09178" lon="6.05925">
        <ele>1741.9</ele>
        <time>2015-06-02T12:14:41Z</time>
      </trkpt>
      <trkpt lat="45.09176" lon="6.05938">
        <ele>1743.8</ele>
        <time>2015-06-02T12:14:46Z</time>
      </trkpt>
      <trkpt lat="45.09174" lon="6.05951">
        <ele>1745.7</ele>
        <time>2015-06-02T12:14:51Z</time>
      </trkpt>
      <trkpt lat="45.0917" lon="6.05964">
        <ele>1747.6</ele>
        <time>2015-06-02T12:14:57Z</time>
      </trkpt>
      <trkpt lat="45.09167" lon="6.05977">
        <ele>1748.4</ele>
        <time>2015-06-02T12:15:03Z</time>
      </trkpt>
      <trkpt lat="45.09164" lon="6.0599">
        <ele>1750.2</ele>
        <time>2015-06-02T12:15:08Z</time>
      </trkpt>
      <trkpt lat="45.0916" lon="6.06003">
        <ele>1752</ele>
        <time>2015-06-02T12:15:13Z</time>
      </trkpt>
      <trkpt lat="45.09157" lon="6.06015">
        <ele>1753.8</ele>
        <time>2015-06-02T12:15:18Z</time>
      </trkpt>
      <trkpt lat="45.09153" lon="6.06028">
        <ele>1755.6</ele>
        <time>2015-06-02T12:15:24Z</time>
      </trkpt>
      <trkpt lat="45.09149" lon="6.06041">
        <ele>1757.5</ele>
        <time>2015-06-02T12:15:30Z</time>
      </trkpt>
      <trkpt lat="45.09145" lon="6.06053">
        <ele>1758.5</ele>
        <time>2015-06-02T12:15:37Z</time>
      </trkpt>
      <trkpt lat="45.09143" lon="6.06066">
        <ele>1760.5</ele>
        <time>2015-06-02T12:15:45Z</time>
      </trkpt>
      <trkpt lat="45.09141" lon="6.0608">
        <ele>1760.8</ele>
        <time>2015-06-02T12:15:52Z</time>
      </trkpt>
      <trkpt lat="45.0914" lon="6.06094">
        <ele>1761.1</ele>
        <time>2015-06-02T12:15:57Z</time>
      </trkpt>
      <trkpt lat="45.09137" lon="6.06109">
        <ele>1761.4</ele>
        <time>2015-06-02T12:16:03Z</time>
      </trkpt>
      <trkpt lat="45.09136" lon="6.06123">
        <ele>1761.6</ele>
        <time>2015-06-02T12:16:07Z</time>
      </trkpt>
      <trkpt lat="45.09134" lon="6.06138">
        <ele>1760.8</ele>
        <time>2015-06-02T12:16:12Z</time>
      </trkpt>
      <trkpt lat="45.0913" lon="6.0615">
        <ele>1760</ele>
        <time>2015-06-02T12:16:17Z</time>
      </trkpt>
      <trkpt lat="45.09126" lon="6.06164">
        <ele>1760.3</ele>
        <time>2015-06-02T12:16:23Z</time>
      </trkpt>
      <trkpt lat="45.09122" lon="6.06176">
        <ele>1760.5</ele>
        <time>2015-06-02T12:16:27Z</time>
      </trkpt>
      <trkpt lat="45.09117" lon="6.06187">
        <ele>1760.8</ele>
        <time>2015-06-02T12:16:32Z</time>
      </trkpt>
      <trkpt lat="45.09115" lon="6.06201">
        <ele>1761.1</ele>
        <time>2015-06-02T12:16:38Z</time>
      </trkpt>
      <trkpt lat="45.09113" lon="6.06215">
        <ele>1760.5</ele>
        <time>2015-06-02T12:16:44Z</time>
      </trkpt>
      <trkpt lat="45.0911" lon="6.0623">
        <ele>1761.5</ele>
        <time>2015-06-02T12:16:51Z</time>
      </trkpt>
      <trkpt lat="45.09105" lon="6.06243">
        <ele>1763.5</ele>
        <time>2015-06-02T12:16:57Z</time>
      </trkpt>
      <trkpt lat="45.09101" lon="6.06254">
        <ele>1765.5</ele>
        <time>2015-06-02T12:17:03Z</time>
      </trkpt>
      <trkpt lat="45.09097" lon="6.06267">
        <ele>1767.5</ele>
        <time>2015-06-02T12:17:08Z</time>
      </trkpt>
      <trkpt lat="45.09093" lon="6.06279">
        <ele>1769.5</ele>
        <time>2015-06-02T12:17:13Z</time>
      </trkpt>
      <trkpt lat="45.0909" lon="6.06291">
        <ele>1771.5</ele>
        <time>2015-06-02T12:17:19Z</time>
      </trkpt>
      <trkpt lat="45.09086" lon="6.06304">
        <ele>1772.5</ele>
        <time>2015-06-02T12:17:25Z</time>
      </trkpt>
      <trkpt lat="45.09084" lon="6.06317">
        <ele>1774</ele>
        <time>2015-06-02T12:17:31Z</time>
      </trkpt>
      <trkpt lat="45.09081" lon="6.06331">
        <ele>1775.5</ele>
        <time>2015-06-02T12:17:37Z</time>
      </trkpt>
      <trkpt lat="45.09079" lon="6.06344">
        <ele>1777.1</ele>
        <time>2015-06-02T12:17:43Z</time>
      </trkpt>
      <trkpt lat="45.09078" lon="6.06358">
        <ele>1778.6</ele>
        <time>2015-06-02T12:17:49Z</time>
      </trkpt>
      <trkpt lat="45.09076" lon="6.06371">
        <ele>1780.2</ele>
        <time>2015-06-02T12:17:55Z</time>
      </trkpt>
      <trkpt lat="45.09074" lon="6.06386">
        <ele>1780.8</ele>
        <time>2015-06-02T12:18:02Z</time>
      </trkpt>
      <trkpt lat="45.09067" lon="6.06399">
        <ele>1781.6</ele>
        <time>2015-06-02T12:18:06Z</time>
      </trkpt>
      <trkpt lat="45.0906" lon="6.06412">
        <ele>1782.5</ele>
        <time>2015-06-02T12:18:10Z</time>
      </trkpt>
      <trkpt lat="45.09057" lon="6.06427">
        <ele>1783.3</ele>
        <time>2015-06-02T12:18:14Z</time>
      </trkpt>
      <trkpt lat="45.09055" lon="6.06442">
        <ele>1784.1</ele>
        <time>2015-06-02T12:18:18Z</time>
      </trkpt>
      <trkpt lat="45.09055" lon="6.06458">
        <ele>1784</ele>
        <time>2015-06-02T12:18:23Z</time>
      </trkpt>
      <trkpt lat="45.09055" lon="6.06473">
        <ele>1784.2</ele>
        <time>2015-06-02T12:18:27Z</time>
      </trkpt>
      <trkpt lat="45.09052" lon="6.06487">
        <ele>1784.4</ele>
        <time>2015-06-02T12:18:30Z</time>
      </trkpt>
      <trkpt lat="45.0905" lon="6.06503">
        <ele>1784.5</ele>
        <time>2015-06-02T12:18:34Z</time>
      </trkpt>
      <trkpt lat="45.09048" lon="6.06517">
        <ele>1784.7</ele>
        <time>2015-06-02T12:18:39Z</time>
      </trkpt>
      <trkpt lat="45.09047" lon="6.06531">
        <ele>1784.9</ele>
        <time>2015-06-02T12:18:46Z</time>
      </trkpt>
      <trkpt lat="45.09054" lon="6.06544">
        <ele>1785.1</ele>
        <time>2015-06-02T12:18:52Z</time>
      </trkpt>
      <trkpt lat="45.09062" lon="6.06535">
        <ele>1785.1</ele>
        <time>2015-06-02T12:19:10Z</time>
      </trkpt>
      <trkpt lat="45.09074" lon="6.06533">
        <ele>1785.1</ele>
        <time>2015-06-02T12:19:13Z</time>
      </trkpt>
      <trkpt lat="45.09085" lon="6.06533">
        <ele>1785.1</ele>
        <time>2015-06-02T12:19:16Z</time>
      </trkpt>
      <trkpt lat="45.09094" lon="6.06526">
        <ele>1784.9</ele>
        <time>2015-06-02T12:19:20Z</time>
      </trkpt>
      <trkpt lat="45.09101" lon="6.06516">
        <ele>1785.6</ele>
        <time>2015-06-02T12:19:25Z</time>
      </trkpt>
      <trkpt lat="45.09101" lon="6.06501">
        <ele>1785.5</ele>
        <time>2015-06-02T12:19:32Z</time>
      </trkpt>
      <trkpt lat="45.09101" lon="6.06486">
        <ele>1785.3</ele>
        <time>2015-06-02T12:19:37Z</time>
      </trkpt>
      <trkpt lat="45.09106" lon="6.06472">
        <ele>1785.1</ele>
        <time>2015-06-02T12:19:42Z</time>
      </trkpt>
      <trkpt lat="45.09114" lon="6.0646">
        <ele>1786.3</ele>
        <time>2015-06-02T12:19:47Z</time>
      </trkpt>
      <trkpt lat="45.09117" lon="6.06447">
        <ele>1787.5</ele>
        <time>2015-06-02T12:19:51Z</time>
      </trkpt>
      <trkpt lat="45.09119" lon="6.06434">
        <ele>1788</ele>
        <time>2015-06-02T12:19:55Z</time>
      </trkpt>
      <trkpt lat="45.09123" lon="6.06423">
        <ele>1788.5</ele>
        <time>2015-06-02T12:20:00Z</time>
      </trkpt>
      <trkpt lat="45.09125" lon="6.0641">
        <ele>1789.1</ele>
        <time>2015-06-02T12:20:04Z</time>
      </trkpt>
      <trkpt lat="45.09131" lon="6.06399">
        <ele>1789.6</ele>
        <time>2015-06-02T12:20:08Z</time>
      </trkpt>
      <trkpt lat="45.09135" lon="6.06387">
        <ele>1790.4</ele>
        <time>2015-06-02T12:20:13Z</time>
      </trkpt>
      <trkpt lat="45.09142" lon="6.06376">
        <ele>1791.1</ele>
        <time>2015-06-02T12:20:19Z</time>
      </trkpt>
      <trkpt lat="45.0915" lon="6.06367">
        <ele>1791.8</ele>
        <time>2015-06-02T12:20:25Z</time>
      </trkpt>
      <trkpt lat="45.09157" lon="6.06356">
        <ele>1792.5</ele>
        <time>2015-06-02T12:20:30Z</time>
      </trkpt>
      <trkpt lat="45.09164" lon="6.06346">
        <ele>1792.6</ele>
        <time>2015-06-02T12:20:35Z</time>
      </trkpt>
      <trkpt lat="45.0917" lon="6.06336">
        <ele>1791.4</ele>
        <time>2015-06-02T12:20:40Z</time>
      </trkpt>
      <trkpt lat="45.09176" lon="6.06326">
        <ele>1790.1</ele>
        <time>2015-06-02T12:20:45Z</time>
      </trkpt>
      <trkpt lat="45.09183" lon="6.06314">
        <ele>1789.5</ele>
        <time>2015-06-02T12:20:50Z</time>
      </trkpt>
      <trkpt lat="45.09188" lon="6.06301">
        <ele>1790.5</ele>
        <time>2015-06-02T12:20:55Z</time>
      </trkpt>
      <trkpt lat="45.09194" lon="6.06289">
        <ele>1791.6</ele>
        <time>2015-06-02T12:20:59Z</time>
      </trkpt>
      <trkpt lat="45.09199" lon="6.06277">
        <ele>1792.7</ele>
        <time>2015-06-02T12:21:04Z</time>
      </trkpt>
      <trkpt lat="45.09205" lon="6.06266">
        <ele>1793.3</ele>
        <time>2015-06-02T12:21:09Z</time>
      </trkpt>
      <trkpt lat="45.09211" lon="6.06253">
        <ele>1793.8</ele>
        <time>2015-06-02T12:21:14Z</time>
      </trkpt>
      <trkpt lat="45.09218" lon="6.06241">
        <ele>1794.4</ele>
        <time>2015-06-02T12:21:19Z</time>
      </trkpt>
      <trkpt lat="45.09224" lon="6.06229">
        <ele>1794.9</ele>
        <time>2015-06-02T12:21:23Z</time>
      </trkpt>
      <trkpt lat="45.09231" lon="6.06219">
        <ele>1796.1</ele>
        <time>2015-06-02T12:21:27Z</time>
      </trkpt>
      <trkpt lat="45.09238" lon="6.06211">
        <ele>1797.3</ele>
        <time>2015-06-02T12:21:31Z</time>
      </trkpt>
      <trkpt lat="45.09246" lon="6.06203">
        <ele>1798.5</ele>
        <time>2015-06-02T12:21:35Z</time>
      </trkpt>
      <trkpt lat="45.09253" lon="6.06194">
        <ele>1799.1</ele>
        <time>2015-06-02T12:21:39Z</time>
      </trkpt>
      <trkpt lat="45.09259" lon="6.06184">
        <ele>1798</ele>
        <time>2015-06-02T12:21:43Z</time>
      </trkpt>
      <trkpt lat="45.09264" lon="6.06172">
        <ele>1797.5</ele>
        <time>2015-06-02T12:21:46Z</time>
      </trkpt>
      <trkpt lat="45.09269" lon="6.0616">
        <ele>1796.9</ele>
        <time>2015-06-02T12:21:50Z</time>
      </trkpt>
      <trkpt lat="45.09271" lon="6.06148">
        <ele>1796.9</ele>
        <time>2015-06-02T12:21:54Z</time>
      </trkpt>
      <trkpt lat="45.09271" lon="6.06133">
        <ele>1796.9</ele>
        <time>2015-06-02T12:21:58Z</time>
      </trkpt>
      <trkpt lat="45.09275" lon="6.06121">
        <ele>1796.9</ele>
        <time>2015-06-02T12:22:04Z</time>
      </trkpt>
      <trkpt lat="45.09278" lon="6.06136">
        <ele>1796.9</ele>
        <time>2015-06-02T12:22:10Z</time>
      </trkpt>
      <trkpt lat="45.09276" lon="6.06149">
        <ele>1797.5</ele>
        <time>2015-06-02T12:22:13Z</time>
      </trkpt>
      <trkpt lat="45.09272" lon="6.06162">
        <ele>1798</ele>
        <time>2015-06-02T12:22:17Z</time>
      </trkpt>
      <trkpt lat="45.0927" lon="6.06177">
        <ele>1798.5</ele>
        <time>2015-06-02T12:22:22Z</time>
      </trkpt>
      <trkpt lat="45.0927" lon="6.06191">
        <ele>1799.6</ele>
        <time>2015-06-02T12:22:28Z</time>
      </trkpt>
      <trkpt lat="45.0927" lon="6.06205">
        <ele>1800.7</ele>
        <time>2015-06-02T12:22:32Z</time>
      </trkpt>
      <trkpt lat="45.09271" lon="6.06221">
        <ele>1801.3</ele>
        <time>2015-06-02T12:22:37Z</time>
      </trkpt>
      <trkpt lat="45.0927" lon="6.06236">
        <ele>1802.5</ele>
        <time>2015-06-02T12:22:42Z</time>
      </trkpt>
      <trkpt lat="45.09269" lon="6.0625">
        <ele>1803.8</ele>
        <time>2015-06-02T12:22:48Z</time>
      </trkpt>
      <trkpt lat="45.0927" lon="6.06263">
        <ele>1805.1</ele>
        <time>2015-06-02T12:22:54Z</time>
      </trkpt>
      <trkpt lat="45.0927" lon="6.06276">
        <ele>1806.4</ele>
        <time>2015-06-02T12:22:59Z</time>
      </trkpt>
      <trkpt lat="45.09269" lon="6.06289">
        <ele>1807.6</ele>
        <time>2015-06-02T12:23:04Z</time>
      </trkpt>
      <trkpt lat="45.09266" lon="6.06303">
        <ele>1808.4</ele>
        <time>2015-06-02T12:23:10Z</time>
      </trkpt>
      <trkpt lat="45.09266" lon="6.06316">
        <ele>1809.5</ele>
        <time>2015-06-02T12:23:15Z</time>
      </trkpt>
      <trkpt lat="45.09266" lon="6.06332">
        <ele>1810.7</ele>
        <time>2015-06-02T12:23:20Z</time>
      </trkpt>
      <trkpt lat="45.09265" lon="6.06348">
        <ele>1811.9</ele>
        <time>2015-06-02T12:23:25Z</time>
      </trkpt>
      <trkpt lat="45.09264" lon="6.06363">
        <ele>1813.1</ele>
        <time>2015-06-02T12:23:29Z</time>
      </trkpt>
      <trkpt lat="45.09264" lon="6.06377">
        <ele>1814.3</ele>
        <time>2015-06-02T12:23:33Z</time>
      </trkpt>
      <trkpt lat="45.09266" lon="6.0639">
        <ele>1814.7</ele>
        <time>2015-06-02T12:23:37Z</time>
      </trkpt>
      <trkpt lat="45.09269" lon="6.06404">
        <ele>1815.2</ele>
        <time>2015-06-02T12:23:41Z</time>
      </trkpt>
      <trkpt lat="45.0927" lon="6.06416">
        <ele>1815.6</ele>
        <time>2015-06-02T12:23:45Z</time>
      </trkpt>
      <trkpt lat="45.0927" lon="6.06431">
        <ele>1816.1</ele>
        <time>2015-06-02T12:23:49Z</time>
      </trkpt>
      <trkpt lat="45.09273" lon="6.06444">
        <ele>1816.5</ele>
        <time>2015-06-02T12:23:53Z</time>
      </trkpt>
      <trkpt lat="45.09277" lon="6.06457">
        <ele>1817</ele>
        <time>2015-06-02T12:23:57Z</time>
      </trkpt>
      <trkpt lat="45.09276" lon="6.0647">
        <ele>1817.1</ele>
        <time>2015-06-02T12:24:01Z</time>
      </trkpt>
      <trkpt lat="45.09276" lon="6.06486">
        <ele>1817.2</ele>
        <time>2015-06-02T12:24:05Z</time>
      </trkpt>
      <trkpt lat="45.09278" lon="6.06501">
        <ele>1817.3</ele>
        <time>2015-06-02T12:24:10Z</time>
      </trkpt>
      <trkpt lat="45.09282" lon="6.06515">
        <ele>1819</ele>
        <time>2015-06-02T12:24:15Z</time>
      </trkpt>
      <trkpt lat="45.09284" lon="6.0653">
        <ele>1820.7</ele>
        <time>2015-06-02T12:24:19Z</time>
      </trkpt>
      <trkpt lat="45.09286" lon="6.06546">
        <ele>1822.5</ele>
        <time>2015-06-02T12:24:24Z</time>
      </trkpt>
      <trkpt lat="45.09288" lon="6.06561">
        <ele>1824.3</ele>
        <time>2015-06-02T12:24:29Z</time>
      </trkpt>
      <trkpt lat="45.09292" lon="6.06574">
        <ele>1826.1</ele>
        <time>2015-06-02T12:24:33Z</time>
      </trkpt>
      <trkpt lat="45.09294" lon="6.06586">
        <ele>1827.9</ele>
        <time>2015-06-02T12:24:37Z</time>
      </trkpt>
      <trkpt lat="45.09296" lon="6.06601">
        <ele>1829.7</ele>
        <time>2015-06-02T12:24:42Z</time>
      </trkpt>
      <trkpt lat="45.09296" lon="6.06616">
        <ele>1831.5</ele>
        <time>2015-06-02T12:24:46Z</time>
      </trkpt>
      <trkpt lat="45.09297" lon="6.06629">
        <ele>1833.3</ele>
        <time>2015-06-02T12:24:50Z</time>
      </trkpt>
      <trkpt lat="45.09298" lon="6.06643">
        <ele>1835</ele>
        <time>2015-06-02T12:24:55Z</time>
      </trkpt>
      <trkpt lat="45.09297" lon="6.06657">
        <ele>1836.5</ele>
        <time>2015-06-02T12:24:59Z</time>
      </trkpt>
      <trkpt lat="45.09297" lon="6.06673">
        <ele>1836.3</ele>
        <time>2015-06-02T12:25:03Z</time>
      </trkpt>
      <trkpt lat="45.09298" lon="6.06686">
        <ele>1836.1</ele>
        <time>2015-06-02T12:25:07Z</time>
      </trkpt>
      <trkpt lat="45.09302" lon="6.06698">
        <ele>1835.9</ele>
        <time>2015-06-02T12:25:12Z</time>
      </trkpt>
      <trkpt lat="45.09308" lon="6.06709">
        <ele>1835.6</ele>
        <time>2015-06-02T12:25:16Z</time>
      </trkpt>
      <trkpt lat="45.09315" lon="6.06719">
        <ele>1835.4</ele>
        <time>2015-06-02T12:25:20Z</time>
      </trkpt>
      <trkpt lat="45.09322" lon="6.0673">
        <ele>1835.1</ele>
        <time>2015-06-02T12:25:25Z</time>
      </trkpt>
      <trkpt lat="45.09328" lon="6.0674">
        <ele>1834.8</ele>
        <time>2015-06-02T12:25:30Z</time>
      </trkpt>
      <trkpt lat="45.09334" lon="6.06751">
        <ele>1834.5</ele>
        <time>2015-06-02T12:25:35Z</time>
      </trkpt>
      <trkpt lat="45.09335" lon="6.06766">
        <ele>1834.1</ele>
        <time>2015-06-02T12:25:40Z</time>
      </trkpt>
      <trkpt lat="45.0933" lon="6.06777">
        <ele>1833.7</ele>
        <time>2015-06-02T12:25:43Z</time>
      </trkpt>
      <trkpt lat="45.09323" lon="6.06792">
        <ele>1832.8</ele>
        <time>2015-06-02T12:25:46Z</time>
      </trkpt>
      <trkpt lat="45.09319" lon="6.06804">
        <ele>1831.9</ele>
        <time>2015-06-02T12:25:48Z</time>
      </trkpt>
      <trkpt lat="45.09315" lon="6.06815">
        <ele>1831</ele>
        <time>2015-06-02T12:25:50Z</time>
      </trkpt>
      <trkpt lat="45.09307" lon="6.06826">
        <ele>1830.1</ele>
        <time>2015-06-02T12:25:53Z</time>
      </trkpt>
      <trkpt lat="45.09299" lon="6.06839">
        <ele>1829.2</ele>
        <time>2015-06-02T12:25:56Z</time>
      </trkpt>
      <trkpt lat="45.09292" lon="6.06853">
        <ele>1828.3</ele>
        <time>2015-06-02T12:25:59Z</time>
      </trkpt>
      <trkpt lat="45.0929" lon="6.06868">
        <ele>1827.4</ele>
        <time>2015-06-02T12:26:03Z</time>
      </trkpt>
      <trkpt lat="45.09286" lon="6.0688">
        <ele>1826.5</ele>
        <time>2015-06-02T12:26:07Z</time>
      </trkpt>
      <trkpt lat="45.09282" lon="6.06892">
        <ele>1825.6</ele>
        <time>2015-06-02T12:26:11Z</time>
      </trkpt>
      <trkpt lat="45.09276" lon="6.06905">
        <ele>1824.8</ele>
        <time>2015-06-02T12:26:16Z</time>
      </trkpt>
      <trkpt lat="45.0927" lon="6.06915">
        <ele>1824.3</ele>
        <time>2015-06-02T12:26:22Z</time>
      </trkpt>
      <trkpt lat="45.09266" lon="6.06929">
        <ele>1824.5</ele>
        <time>2015-06-02T12:26:28Z</time>
      </trkpt>
      <trkpt lat="45.09259" lon="6.0694">
        <ele>1824.8</ele>
        <time>2015-06-02T12:26:34Z</time>
      </trkpt>
      <trkpt lat="45.09255" lon="6.06952">
        <ele>1825.1</ele>
        <time>2015-06-02T12:26:38Z</time>
      </trkpt>
      <trkpt lat="45.0925" lon="6.06966">
        <ele>1825.4</ele>
        <time>2015-06-02T12:26:42Z</time>
      </trkpt>
      <trkpt lat="45.09248" lon="6.0698">
        <ele>1825.6</ele>
        <time>2015-06-02T12:26:48Z</time>
      </trkpt>
      <trkpt lat="45.09245" lon="6.06993">
        <ele>1825.9</ele>
        <time>2015-06-02T12:26:54Z</time>
      </trkpt>
      <trkpt lat="45.09242" lon="6.07006">
        <ele>1826.2</ele>
        <time>2015-06-02T12:27:03Z</time>
      </trkpt>
      <trkpt lat="45.09239" lon="6.0702">
        <ele>1826.5</ele>
        <time>2015-06-02T12:27:12Z</time>
      </trkpt>
      <trkpt lat="45.09242" lon="6.07035">
        <ele>1826.7</ele>
        <time>2015-06-02T12:27:19Z</time>
      </trkpt>
      <trkpt lat="45.09244" lon="6.07048">
        <ele>1827</ele>
        <time>2015-06-02T12:27:25Z</time>
      </trkpt>
      <trkpt lat="45.09245" lon="6.07062">
        <ele>1827</ele>
        <time>2015-06-02T12:27:31Z</time>
      </trkpt>
      <trkpt lat="45.09245" lon="6.07076">
        <ele>1827</ele>
        <time>2015-06-02T12:27:37Z</time>
      </trkpt>
      <trkpt lat="45.09243" lon="6.0709">
        <ele>1827</ele>
        <time>2015-06-02T12:27:44Z</time>
      </trkpt>
      <trkpt lat="45.09245" lon="6.07105">
        <ele>1827</ele>
        <time>2015-06-02T12:27:50Z</time>
      </trkpt>
      <trkpt lat="45.09246" lon="6.07118">
        <ele>1827</ele>
        <time>2015-06-02T12:27:55Z</time>
      </trkpt>
      <trkpt lat="45.09248" lon="6.07131">
        <ele>1827</ele>
        <time>2015-06-02T12:27:59Z</time>
      </trkpt>
      <trkpt lat="45.09248" lon="6.07147">
        <ele>1827</ele>
        <time>2015-06-02T12:28:04Z</time>
      </trkpt>
      <trkpt lat="45.0925" lon="6.07163">
        <ele>1827</ele>
        <time>2015-06-02T12:28:08Z</time>
      </trkpt>
      <trkpt lat="45.09253" lon="6.07177">
        <ele>1827</ele>
        <time>2015-06-02T12:28:12Z</time>
      </trkpt>
      <trkpt lat="45.09255" lon="6.07192">
        <ele>1827</ele>
        <time>2015-06-02T12:28:16Z</time>
      </trkpt>
      <trkpt lat="45.09257" lon="6.07207">
        <ele>1827.3</ele>
        <time>2015-06-02T12:28:20Z</time>
      </trkpt>
      <trkpt lat="45.09265" lon="6.07216">
        <ele>1827.5</ele>
        <time>2015-06-02T12:28:24Z</time>
      </trkpt>
      <trkpt lat="45.09276" lon="6.07211">
        <ele>1827.8</ele>
        <time>2015-06-02T12:28:28Z</time>
      </trkpt>
      <trkpt lat="45.09284" lon="6.07206">
        <ele>1828.1</ele>
        <time>2015-06-02T12:28:31Z</time>
      </trkpt>
      <trkpt lat="45.09293" lon="6.07198">
        <ele>1828.4</ele>
        <time>2015-06-02T12:28:35Z</time>
      </trkpt>
      <trkpt lat="45.09301" lon="6.07191">
        <ele>1828.6</ele>
        <time>2015-06-02T12:28:39Z</time>
      </trkpt>
      <trkpt lat="45.09309" lon="6.07186">
        <ele>1828.9</ele>
        <time>2015-06-02T12:28:44Z</time>
      </trkpt>
      <trkpt lat="45.09317" lon="6.07177">
        <ele>1829.2</ele>
        <time>2015-06-02T12:28:47Z</time>
      </trkpt>
      <trkpt lat="45.09327" lon="6.07172">
        <ele>1829.5</ele>
        <time>2015-06-02T12:28:51Z</time>
      </trkpt>
      <trkpt lat="45.09336" lon="6.07168">
        <ele>1830.5</ele>
        <time>2015-06-02T12:28:55Z</time>
      </trkpt>
      <trkpt lat="45.09346" lon="6.07163">
        <ele>1831.8</ele>
        <time>2015-06-02T12:29:00Z</time>
      </trkpt>
      <trkpt lat="45.09356" lon="6.07157">
        <ele>1832.9</ele>
        <time>2015-06-02T12:29:05Z</time>
      </trkpt>
      <trkpt lat="45.09364" lon="6.07151">
        <ele>1834</ele>
        <time>2015-06-02T12:29:10Z</time>
      </trkpt>
      <trkpt lat="45.09373" lon="6.07148">
        <ele>1835.1</ele>
        <time>2015-06-02T12:29:14Z</time>
      </trkpt>
      <trkpt lat="45.09381" lon="6.07139">
        <ele>1836.2</ele>
        <time>2015-06-02T12:29:19Z</time>
      </trkpt>
      <trkpt lat="45.09391" lon="6.07133">
        <ele>1837.3</ele>
        <time>2015-06-02T12:29:24Z</time>
      </trkpt>
      <trkpt lat="45.094" lon="6.07126">
        <ele>1838.4</ele>
        <time>2015-06-02T12:29:28Z</time>
      </trkpt>
      <trkpt lat="45.09408" lon="6.07119">
        <ele>1839.5</ele>
        <time>2015-06-02T12:29:34Z</time>
      </trkpt>
      <trkpt lat="45.09419" lon="6.07115">
        <ele>1841.1</ele>
        <time>2015-06-02T12:29:40Z</time>
      </trkpt>
      <trkpt lat="45.09428" lon="6.07112">
        <ele>1842.7</ele>
        <time>2015-06-02T12:29:45Z</time>
      </trkpt>
      <trkpt lat="45.09437" lon="6.07107">
        <ele>1843.6</ele>
        <time>2015-06-02T12:29:50Z</time>
      </trkpt>
      <trkpt lat="45.09446" lon="6.07101">
        <ele>1844.2</ele>
        <time>2015-06-02T12:29:56Z</time>
      </trkpt>
      <trkpt lat="45.09455" lon="6.07099">
        <ele>1844.7</ele>
        <time>2015-06-02T12:30:01Z</time>
      </trkpt>
      <trkpt lat="45.09464" lon="6.07094">
        <ele>1845.3</ele>
        <time>2015-06-02T12:30:06Z</time>
      </trkpt>
      <trkpt lat="45.09474" lon="6.07091">
        <ele>1845.3</ele>
        <time>2015-06-02T12:30:12Z</time>
      </trkpt>
      <trkpt lat="45.09483" lon="6.07086">
        <ele>1845.3</ele>
        <time>2015-06-02T12:30:17Z</time>
      </trkpt>
      <trkpt lat="45.09484" lon="6.07072">
        <ele>1845.3</ele>
        <time>2015-06-02T12:30:26Z</time>
      </trkpt>
      <trkpt lat="45.09474" lon="6.07068">
        <ele>1845.3</ele>
        <time>2015-06-02T12:30:29Z</time>
      </trkpt>
      <trkpt lat="45.09466" lon="6.07073">
        <ele>1845.3</ele>
        <time>2015-06-02T12:30:38Z</time>
      </trkpt>
      <trkpt lat="45.09457" lon="6.07084">
        <ele>1845</ele>
        <time>2015-06-02T12:30:43Z</time>
      </trkpt>
      <trkpt lat="45.09453" lon="6.07096">
        <ele>1844.7</ele>
        <time>2015-06-02T12:30:45Z</time>
      </trkpt>
      <trkpt lat="45.09447" lon="6.07111">
        <ele>1844.2</ele>
        <time>2015-06-02T12:30:48Z</time>
      </trkpt>
      <trkpt lat="45.09449" lon="6.07127">
        <ele>1843.7</ele>
        <time>2015-06-02T12:30:51Z</time>
      </trkpt>
      <trkpt lat="45.09449" lon="6.07127">
        <ele>1843</ele>
        <time>2015-06-02T12:32:54Z</time>
      </trkpt>
    </trkseg>
  </trk>
</gpx>